Observation data for Welch on 06/25/2019      Previous  Date       Current Mesonet Observations  Soil Data  Daily Summary Page  Observations in Plain Language
KWE2 250500Z 13010KT 22/16 A2999 RMK A01 T02160162  RH  071%=      5-min Rain = 0
KWE2 250501Z 14011KT 22/16 A2999 RMK A01 T02150162  RH  072%=      5-min Rain = 0
KWE2 250502Z 14011KT 22/16 A2999 RMK A01 T02150160  RH  071%=      5-min Rain = 0
KWE2 250503Z 14011KT 22/16 A2999 RMK A01 T02150158  RH  070%=      5-min Rain = 0
KWE2 250504Z 14012KT 22/16 A2999 RMK A01 T02150156  RH  069%=      5-min Rain = 0
KWE2 250505Z 14012KT 22/15 A2999 RMK A01 T02150154  RH  068%=      5-min Rain = 0
KWE2 250506Z 14012KT 22/15 A2999 RMK A01 T02150154  RH  068%=      5-min Rain = 0
KWE2 250507Z 14011KT 21/15 A2999 RMK A01 T02140153  RH  068%=      5-min Rain = 0
KWE2 250508Z 15012KT 21/15 A2999 RMK A01 T02140153  RH  068%=      5-min Rain = 0
KWE2 250509Z 15012KT 21/15 A2999 RMK A01 T02130153  RH  069%=      5-min Rain = 0
KWE2 250510Z 15011KT 21/15 A2999 RMK A01 T02120153  RH  069%=      5-min Rain = 0
KWE2 250511Z 15011KT 21/15 A2999 RMK A01 T02120153  RH  069%=      5-min Rain = 0
KWE2 250512Z 14010KT 21/15 A2999 RMK A01 T02120154  RH  069%=      5-min Rain = 0
KWE2 250513Z 14010KT 21/15 A2999 RMK A01 T02110154  RH  070%=      5-min Rain = 0
KWE2 250514Z 14011KT 21/15 A2999 RMK A01 T02100153  RH  070%=      5-min Rain = 0
KWE2 250515Z 14011KT 21/15 A2999 RMK A01 T02100152  RH  069%=      5-min Rain = 0
KWE2 250516Z 14010KT 21/15 A2999 RMK A01 T02100153  RH  070%=      5-min Rain = 0
KWE2 250517Z 14010KT 21/15 A2999 RMK A01 T02090154  RH  070%=      5-min Rain = 0
KWE2 250518Z 14010KT 21/15 A2999 RMK A01 T02090153  RH  071%=      5-min Rain = 0
KWE2 250519Z 13010KT 21/15 A2999 RMK A01 T02080154  RH  071%=      5-min Rain = 0
KWE2 250520Z 13010KT 21/15 A2999 RMK A01 T02080154  RH  071%=      5-min Rain = 0
KWE2 250521Z 13010KT 21/15 A2999 RMK A01 T02070153  RH  071%=      5-min Rain = 0
KWE2 250522Z 13009KT 21/15 A2999 RMK A01 T02070153  RH  071%=      5-min Rain = 0
KWE2 250523Z 13009KT 21/15 A2999 RMK A01 T02070153  RH  071%=      5-min Rain = 0
KWE2 250524Z 13009KT 21/15 A2999 RMK A01 T02070153  RH  071%=      5-min Rain = 0
KWE2 250525Z 13008KT 21/15 A2999 RMK A01 T02060153  RH  071%=      5-min Rain = 0
KWE2 250526Z 13009KT 21/15 A2999 RMK A01 T02060153  RH  072%=      5-min Rain = 0
KWE2 250527Z 14008KT 21/15 A2999 RMK A01 T02050153  RH  072%=      5-min Rain = 0
KWE2 250528Z 14010KT 21/15 A2999 RMK A01 T02050153  RH  072%=      5-min Rain = 0
KWE2 250529Z 14009KT 21/15 A2999 RMK A01 T02050153  RH  072%=      5-min Rain = 0
KWE2 250530Z 15009KT 21/15 A2999 RMK A01 T02050152  RH  071%=      5-min Rain = 0
KWE2 250531Z 15009KT 21/15 A2999 RMK A01 T02060152  RH  071%=      5-min Rain = 0
KWE2 250532Z 14009KT 21/15 A2999 RMK A01 T02060152  RH  071%=      5-min Rain = 0
KWE2 250533Z 14009KT 21/15 A2999 RMK A01 T02060152  RH  071%=      5-min Rain = 0
KWE2 250534Z 14009KT 21/15 A2999 RMK A01 T02050153  RH  072%=      5-min Rain = 0
KWE2 250535Z 14009KT 21/15 A2999 RMK A01 T02050153  RH  072%=      5-min Rain = 0
KWE2 250536Z 13009KT 20/15 A2999 RMK A01 T02040153  RH  072%=      5-min Rain = 0
KWE2 250537Z 13009KT 20/15 A2999 RMK A01 T02040152  RH  072%=      5-min Rain = 0
KWE2 250538Z 13008KT 20/15 A2999 RMK A01 T02040153  RH  072%=      5-min Rain = 0
KWE2 250539Z 12008KT 20/15 A2999 RMK A01 T02030152  RH  072%=      5-min Rain = 0
KWE2 250540Z 12008KT 20/15 A2999 RMK A01 T02030153  RH  073%=      5-min Rain = 0
KWE2 250541Z 12008KT 20/15 A2999 RMK A01 T02030152  RH  073%=      5-min Rain = 0
KWE2 250542Z 12009KT 20/15 A2999 RMK A01 T02020152  RH  073%=      5-min Rain = 0
KWE2 250543Z 12008KT 20/15 A2999 RMK A01 T02020152  RH  073%=      5-min Rain = 0
KWE2 250544Z 12008KT 20/15 A2999 RMK A01 T02020152  RH  073%=      5-min Rain = 0
KWE2 250545Z 13007KT 20/15 A2999 RMK A01 T02020152  RH  073%=      5-min Rain = 0
KWE2 250546Z 13007KT 20/15 A2999 RMK A01 T02020153  RH  073%=      5-min Rain = 0
KWE2 250547Z 13008KT 20/15 A2999 RMK A01 T02010153  RH  074%=      5-min Rain = 0
KWE2 250548Z 13008KT 20/15 A2999 RMK A01 T02010153  RH  074%=      5-min Rain = 0
KWE2 250549Z 13008KT 20/15 A2999 RMK A01 T02010154  RH  074%=      5-min Rain = 0
KWE2 250550Z 13007KT 20/15 A2999 RMK A01 T02000154  RH  075%=      5-min Rain = 0
KWE2 250551Z 13007KT 20/16 A2999 RMK A01 T02000155  RH  075%=      5-min Rain = 0
KWE2 250552Z 13008KT 20/16 A2998 RMK A01 T02000155  RH  075%=      5-min Rain = 0
KWE2 250553Z 13008KT 20/16 A2998 RMK A01 T02000155  RH  075%=      5-min Rain = 0
KWE2 250554Z 13008KT 20/15 A2998 RMK A01 T01990153  RH  075%=      5-min Rain = 0
KWE2 250555Z 13009KT 20/15 A2998 RMK A01 T02000154  RH  075%=      5-min Rain = 0
KWE2 250556Z 13009KT 20/16 A2998 RMK A01 T02000155  RH  075%=      5-min Rain = 0
KWE2 250557Z 13009KT 20/16 A2998 RMK A01 T02000155  RH  075%=      5-min Rain = 0
KWE2 250558Z 13009KT 20/16 A2998 RMK A01 T02000155  RH  075%=      5-min Rain = 0
KWE2 250559Z 13007KT 20/16 A2998 RMK A01 T02000155  RH  075%=      5-min Rain = 0
KWE2 250600Z 13007KT 20/16 A2998 RMK A01 T01990155  RH  076%=      5-min Rain = 0
KWE2 250601Z 13008KT 20/16 A2998 RMK A01 T01990155  RH  076%=      5-min Rain = 0
KWE2 250602Z 13008KT 20/16 A2998 RMK A01 T01980155  RH  076%=      5-min Rain = 0
KWE2 250603Z 13008KT 20/16 A2998 RMK A01 T01980155  RH  076%=      5-min Rain = 0
KWE2 250604Z 13008KT 20/16 A2998 RMK A01 T01980155  RH  076%=      5-min Rain = 0
KWE2 250605Z 13008KT 20/15 A2998 RMK A01 T01980154  RH  076%=      5-min Rain = 0
KWE2 250606Z 13007KT 20/15 A2998 RMK A01 T01970154  RH  076%=      5-min Rain = 0
KWE2 250607Z 13007KT 20/15 A2998 RMK A01 T01970154  RH  076%=      5-min Rain = 0
KWE2 250608Z 14008KT 20/15 A2998 RMK A01 T01970154  RH  076%=      5-min Rain = 0
KWE2 250609Z 13007KT 20/15 A2998 RMK A01 T01970154  RH  076%=      5-min Rain = 0
KWE2 250610Z 13008KT 20/15 A2997 RMK A01 T01970154  RH  076%=      5-min Rain = 0
KWE2 250611Z 13008KT 20/15 A2997 RMK A01 T01960153  RH  076%=      5-min Rain = 0
KWE2 250612Z 13008KT 20/15 A2997 RMK A01 T01960153  RH  076%=      5-min Rain = 0
KWE2 250613Z 13008KT 20/15 A2998 RMK A01 T01960153  RH  076%=      5-min Rain = 0
KWE2 250614Z 14007KT 20/15 A2998 RMK A01 T01960153  RH  076%=      5-min Rain = 0
KWE2 250615Z 14007KT 20/15 A2998 RMK A01 T01960153  RH  076%=      5-min Rain = 0
KWE2 250616Z 13007KT 20/15 A2998 RMK A01 T01950153  RH  076%=      5-min Rain = 0
KWE2 250617Z 13007KT 20/15 A2998 RMK A01 T01950152  RH  076%=      5-min Rain = 0
KWE2 250618Z 13007KT 19/15 A2998 RMK A01 T01940152  RH  076%=      5-min Rain = 0
KWE2 250619Z 13007KT 19/15 A2998 RMK A01 T01940152  RH  077%=      5-min Rain = 0
KWE2 250620Z 12006KT 19/15 A2998 RMK A01 T01940152  RH  077%=      5-min Rain = 0
KWE2 250621Z 12006KT 19/15 A2998 RMK A01 T01940152  RH  077%=      5-min Rain = 0
KWE2 250622Z 12006KT 19/15 A2998 RMK A01 T01930153  RH  077%=      5-min Rain = 0
KWE2 250623Z 11006KT 19/15 A2998 RMK A01 T01920152  RH  078%=      5-min Rain = 0
KWE2 250624Z 11007KT 19/15 A2998 RMK A01 T01920152  RH  078%=      5-min Rain = 0
KWE2 250625Z 11006KT 19/15 A2998 RMK A01 T01910153  RH  078%=      5-min Rain = 0
KWE2 250626Z 12006KT 19/15 A2998 RMK A01 T01910152  RH  078%=      5-min Rain = 0
KWE2 250627Z 12006KT 19/15 A2998 RMK A01 T01900152  RH  079%=      5-min Rain = 0
KWE2 250628Z 12006KT 19/15 A2998 RMK A01 T01900153  RH  079%=      5-min Rain = 0
KWE2 250629Z 13006KT 19/15 A2998 RMK A01 T01890153  RH  079%=      5-min Rain = 0
KWE2 250630Z 13006KT 19/15 A2998 RMK A01 T01890153  RH  080%=      5-min Rain = 0
KWE2 250631Z 13006KT 19/15 A2998 RMK A01 T01890153  RH  079%=      5-min Rain = 0
KWE2 250632Z 13006KT 19/15 A2997 RMK A01 T01890153  RH  079%=      5-min Rain = 0
KWE2 250633Z 14006KT 19/15 A2997 RMK A01 T01880152  RH  080%=      5-min Rain = 0
KWE2 250634Z 14006KT 19/15 A2997 RMK A01 T01880152  RH  079%=      5-min Rain = 0
KWE2 250635Z 14006KT 19/15 A2997 RMK A01 T01880153  RH  080%=      5-min Rain = 0
KWE2 250636Z 14006KT 19/15 A2997 RMK A01 T01880154  RH  080%=      5-min Rain = 0
KWE2 250637Z 14006KT 19/15 A2997 RMK A01 T01880154  RH  081%=      5-min Rain = 0
KWE2 250638Z 14006KT 19/15 A2997 RMK A01 T01870154  RH  081%=      5-min Rain = 0
KWE2 250639Z 14006KT 19/16 A2997 RMK A01 T01870155  RH  081%=      5-min Rain = 0
KWE2 250640Z 14006KT 19/15 A2997 RMK A01 T01860154  RH  082%=      5-min Rain = 0
KWE2 250641Z 14005KT 19/16 A2997 RMK A01 T01860155  RH  082%=      5-min Rain = 0
KWE2 250642Z 14005KT 19/16 A2997 RMK A01 T01860155  RH  082%=      5-min Rain = 0
KWE2 250643Z 14005KT 19/15 A2997 RMK A01 T01860154  RH  082%=      5-min Rain = 0
KWE2 250644Z 14004KT 19/16 A2997 RMK A01 T01860155  RH  082%=      5-min Rain = 0
KWE2 250645Z 14004KT 19/16 A2998 RMK A01 T01860156  RH  083%=      5-min Rain = 0
KWE2 250646Z 13004KT 19/16 A2998 RMK A01 T01850155  RH  083%=      5-min Rain = 0
KWE2 250647Z 13004KT 19/16 A2998 RMK A01 T01850155  RH  083%=      5-min Rain = 0
KWE2 250648Z 13004KT 19/16 A2998 RMK A01 T01850155  RH  083%=      5-min Rain = 0
KWE2 250649Z 14005KT 18/16 A2998 RMK A01 T01840155  RH  083%=      5-min Rain = 0
KWE2 250650Z 14005KT 18/16 A2998 RMK A01 T01840155  RH  083%=      5-min Rain = 0
KWE2 250651Z 14005KT 18/16 A2998 RMK A01 T01840155  RH  083%=      5-min Rain = 0
KWE2 250652Z 14005KT 18/16 A2997 RMK A01 T01840155  RH  083%=      5-min Rain = 0
KWE2 250653Z 15006KT 18/15 A2997 RMK A01 T01840153  RH  082%=      5-min Rain = 0
KWE2 250654Z 15006KT 18/15 A2997 RMK A01 T01840152  RH  082%=      5-min Rain = 0
KWE2 250655Z 15006KT 18/15 A2997 RMK A01 T01840151  RH  081%=      5-min Rain = 0
KWE2 250656Z 15007KT 19/15 A2997 RMK A01 T01850151  RH  081%=      5-min Rain = 0
KWE2 250657Z 16006KT 19/15 A2997 RMK A01 T01850150  RH  080%=      5-min Rain = 0
KWE2 250658Z 16007KT 19/15 A2997 RMK A01 T01860150  RH  079%=      5-min Rain = 0
KWE2 250659Z 16007KT 19/15 A2997 RMK A01 T01860150  RH  079%=      5-min Rain = 0
KWE2 250700Z 17006KT 19/15 A2998 RMK A01 T01860150  RH  079%=      5-min Rain = 0
KWE2 250701Z 17007KT 19/15 A2997 RMK A01 T01860150  RH  079%=      5-min Rain = 0
KWE2 250702Z 17007KT 19/15 A2997 RMK A01 T01860150  RH  079%=      5-min Rain = 0
KWE2 250703Z 17007KT 19/15 A2997 RMK A01 T01860150  RH  079%=      5-min Rain = 0
KWE2 250704Z 17006KT 19/15 A2997 RMK A01 T01850149  RH  079%=      5-min Rain = 0
KWE2 250705Z 17006KT 19/15 A2997 RMK A01 T01850149  RH  079%=      5-min Rain = 0
KWE2 250706Z 17006KT 19/15 A2997 RMK A01 T01850149  RH  080%=      5-min Rain = 0
KWE2 250707Z 17006KT 19/15 A2997 RMK A01 T01850149  RH  080%=      5-min Rain = 0
KWE2 250708Z 17005KT 18/15 A2997 RMK A01 T01840149  RH  080%=      5-min Rain = 0
KWE2 250709Z 18005KT 18/15 A2997 RMK A01 T01840150  RH  080%=      5-min Rain = 0
KWE2 250710Z 18005KT 18/15 A2997 RMK A01 T01830149  RH  081%=      5-min Rain = 0
KWE2 250711Z 18004KT 18/15 A2997 RMK A01 T01820149  RH  081%=      5-min Rain = 0
KWE2 250712Z 18005KT 18/15 A2998 RMK A01 T01820150  RH  081%=      5-min Rain = 0
KWE2 250713Z 19005KT 18/15 A2998 RMK A01 T01810150  RH  082%=      5-min Rain = 0
KWE2 250714Z 19006KT 18/15 A2998 RMK A01 T01800150  RH  082%=      5-min Rain = 0
KWE2 250715Z 19005KT 18/15 A2998 RMK A01 T01790150  RH  083%=      5-min Rain = 0
KWE2 250716Z 19005KT 18/15 A2998 RMK A01 T01780150  RH  084%=      5-min Rain = 0
KWE2 250717Z 19005KT 18/15 A2998 RMK A01 T01780150  RH  084%=      5-min Rain = 0
KWE2 250718Z 19005KT 18/15 A2998 RMK A01 T01780151  RH  084%=      5-min Rain = 0
KWE2 250719Z 19005KT 18/15 A2998 RMK A01 T01770151  RH  084%=      5-min Rain = 0
KWE2 250720Z 18004KT 18/15 A2998 RMK A01 T01770151  RH  084%=      5-min Rain = 0
KWE2 250721Z 19005KT 18/15 A2998 RMK A01 T01770150  RH  084%=      5-min Rain = 0
KWE2 250722Z 19005KT 18/15 A2998 RMK A01 T01770150  RH  084%=      5-min Rain = 0
KWE2 250723Z 19005KT 18/15 A2998 RMK A01 T01770150  RH  084%=      5-min Rain = 0
KWE2 250724Z 19005KT 18/15 A2998 RMK A01 T01760149  RH  084%=      5-min Rain = 0
KWE2 250725Z 19005KT 18/15 A2998 RMK A01 T01760149  RH  084%=      5-min Rain = 0
KWE2 250726Z 18005KT 18/15 A2998 RMK A01 T01760149  RH  084%=      5-min Rain = 0
KWE2 250727Z 18005KT 18/15 A2998 RMK A01 T01760149  RH  084%=      5-min Rain = 0
KWE2 250728Z 18005KT 18/15 A2998 RMK A01 T01760149  RH  084%=      5-min Rain = 0
KWE2 250729Z 17005KT 18/15 A2998 RMK A01 T01750149  RH  084%=      5-min Rain = 0
KWE2 250730Z 17006KT 18/15 A2998 RMK A01 T01750149  RH  084%=      5-min Rain = 0
KWE2 250731Z 17006KT 18/15 A2998 RMK A01 T01750148  RH  084%=      5-min Rain = 0
KWE2 250732Z 18005KT 18/15 A2997 RMK A01 T01760148  RH  084%=      5-min Rain = 0
KWE2 250733Z 18005KT 18/15 A2997 RMK A01 T01760148  RH  083%=      5-min Rain = 0
KWE2 250734Z 18005KT 18/15 A2997 RMK A01 T01760148  RH  083%=      5-min Rain = 0
KWE2 250735Z 18005KT 18/15 A2997 RMK A01 T01770148  RH  083%=      5-min Rain = 0
KWE2 250736Z 18006KT 18/15 A2997 RMK A01 T01770147  RH  083%=      5-min Rain = 0
KWE2 250737Z 18006KT 18/15 A2997 RMK A01 T01770146  RH  082%=      5-min Rain = 0
KWE2 250738Z 18006KT 18/15 A2997 RMK A01 T01780146  RH  082%=      5-min Rain = 0
KWE2 250739Z 18006KT 18/15 A2997 RMK A01 T01780147  RH  082%=      5-min Rain = 0
KWE2 250740Z 18006KT 18/15 A2997 RMK A01 T01780147  RH  082%=      5-min Rain = 0
KWE2 250741Z 18006KT 18/15 A2997 RMK A01 T01780147  RH  082%=      5-min Rain = 0
KWE2 250742Z 18006KT 18/15 A2997 RMK A01 T01770147  RH  082%=      5-min Rain = 0
KWE2 250743Z 17005KT 18/15 A2997 RMK A01 T01770147  RH  082%=      5-min Rain = 0
KWE2 250744Z 17005KT 18/15 A2997 RMK A01 T01770146  RH  082%=      5-min Rain = 0
KWE2 250745Z 17005KT 18/15 A2997 RMK A01 T01770145  RH  082%=      5-min Rain = 0
KWE2 250746Z 17005KT 18/15 A2997 RMK A01 T01770146  RH  082%=      5-min Rain = 0
KWE2 250747Z 17006KT 18/15 A2997 RMK A01 T01770145  RH  082%=      5-min Rain = 0
KWE2 250748Z 17006KT 18/15 A2998 RMK A01 T01770146  RH  082%=      5-min Rain = 0
KWE2 250749Z 17005KT 18/15 A2997 RMK A01 T01770146  RH  082%=      5-min Rain = 0
KWE2 250750Z 17005KT 18/15 A2997 RMK A01 T01770146  RH  082%=      5-min Rain = 0
KWE2 250751Z 17005KT 18/15 A2998 RMK A01 T01770146  RH  082%=      5-min Rain = 0
KWE2 250752Z 16005KT 18/15 A2997 RMK A01 T01770146  RH  082%=      5-min Rain = 0
KWE2 250753Z 16005KT 18/15 A2998 RMK A01 T01770146  RH  082%=      5-min Rain = 0
KWE2 250754Z 16005KT 18/15 A2998 RMK A01 T01760146  RH  082%=      5-min Rain = 0
KWE2 250755Z 16005KT 18/15 A2998 RMK A01 T01760146  RH  082%=      5-min Rain = 0
KWE2 250756Z 15004KT 18/15 A2998 RMK A01 T01760146  RH  082%=      5-min Rain = 0
KWE2 250757Z 15005KT 18/15 A2998 RMK A01 T01750146  RH  083%=      5-min Rain = 0
KWE2 250758Z 15005KT 17/15 A2998 RMK A01 T01740145  RH  083%=      5-min Rain = 0
KWE2 250759Z 14005KT 17/15 A2998 RMK A01 T01740146  RH  083%=      5-min Rain = 0
KWE2 250800Z 15005KT 17/15 A2998 RMK A01 T01740146  RH  084%=      5-min Rain = 0
KWE2 250801Z 15007KT 17/15 A2999 RMK A01 T01740146  RH  084%=      5-min Rain = 0
KWE2 250802Z 15006KT 17/15 A2999 RMK A01 T01740146  RH  084%=      5-min Rain = 0
KWE2 250803Z 15006KT 17/15 A2999 RMK A01 T01730146  RH  084%=      5-min Rain = 0
KWE2 250804Z 15006KT 17/15 A2999 RMK A01 T01740146  RH  084%=      5-min Rain = 0
KWE2 250805Z 15008KT 17/15 A2999 RMK A01 T01730145  RH  084%=      5-min Rain = 0
KWE2 250806Z 15007KT 17/15 A2998 RMK A01 T01740145  RH  083%=      5-min Rain = 0
KWE2 250807Z 15008KT 17/15 A2998 RMK A01 T01740146  RH  084%=      5-min Rain = 0
KWE2 250808Z 16008KT 17/15 A2999 RMK A01 T01740145  RH  083%=      5-min Rain = 0
KWE2 250809Z 16008KT 18/15 A2998 RMK A01 T01750146  RH  083%=      5-min Rain = 0
KWE2 250810Z 16008KT 18/15 A2998 RMK A01 T01750146  RH  083%=      5-min Rain = 0
KWE2 250811Z 16007KT 18/15 A2998 RMK A01 T01750146  RH  083%=      5-min Rain = 0
KWE2 250812Z 16007KT 18/15 A2998 RMK A01 T01750146  RH  083%=      5-min Rain = 0
KWE2 250813Z 16007KT 18/15 A2998 RMK A01 T01750146  RH  083%=      5-min Rain = 0
KWE2 250814Z 16008KT 18/15 A2998 RMK A01 T01750147  RH  083%=      5-min Rain = 0
KWE2 250815Z 17008KT 18/15 A2998 RMK A01 T01750146  RH  083%=      5-min Rain = 0
KWE2 250816Z 17007KT 18/15 A2998 RMK A01 T01750147  RH  083%=      5-min Rain = 0
KWE2 250817Z 17007KT 18/15 A2998 RMK A01 T01750147  RH  083%=      5-min Rain = 0
KWE2 250818Z 17008KT 18/15 A2998 RMK A01 T01750147  RH  083%=      5-min Rain = 0
KWE2 250819Z 17006KT 18/15 A2998 RMK A01 T01750147  RH  084%=      5-min Rain = 0
KWE2 250820Z 17007KT 18/15 A2998 RMK A01 T01750147  RH  084%=      5-min Rain = 0
KWE2 250821Z 17008KT 18/15 A2998 RMK A01 T01750148  RH  084%=      5-min Rain = 0
KWE2 250822Z 17008KT 18/15 A2998 RMK A01 T01750148  RH  084%=      5-min Rain = 0
KWE2 250823Z 17008KT 17/15 A2998 RMK A01 T01740147  RH  084%=      5-min Rain = 0
KWE2 250824Z 17008KT 17/15 A2998 RMK A01 T01740148  RH  084%=      5-min Rain = 0
KWE2 250825Z 17008KT 17/15 A2998 RMK A01 T01740148  RH  084%=      5-min Rain = 0
KWE2 250826Z 17007KT 18/15 A2998 RMK A01 T01750148  RH  084%=      5-min Rain = 0
KWE2 250827Z 17008KT 17/15 A2998 RMK A01 T01740147  RH  084%=      5-min Rain = 0
KWE2 250828Z 17008KT 17/15 A2998 RMK A01 T01740147  RH  084%=      5-min Rain = 0
KWE2 250829Z 16009KT 17/15 A2998 RMK A01 T01740147  RH  084%=      5-min Rain = 0
KWE2 250830Z 16009KT 17/15 A2998 RMK A01 T01740147  RH  084%=      5-min Rain = 0
KWE2 250831Z 16008KT 17/15 A2998 RMK A01 T01740147  RH  084%=      5-min Rain = 0
KWE2 250832Z 17009KT 17/15 A2998 RMK A01 T01740147  RH  084%=      5-min Rain = 0
KWE2 250833Z 17009KT 17/15 A2998 RMK A01 T01740147  RH  084%=      5-min Rain = 0
KWE2 250834Z 17009KT 17/15 A2998 RMK A01 T01730147  RH  084%=      5-min Rain = 0
KWE2 250835Z 17008KT 17/15 A2998 RMK A01 T01740147  RH  084%=      5-min Rain = 0
KWE2 250836Z 17009KT 17/15 A2998 RMK A01 T01730147  RH  084%=      5-min Rain = 0
KWE2 250837Z 17009KT 17/15 A2998 RMK A01 T01730147  RH  085%=      5-min Rain = 0
KWE2 250838Z 17009KT 17/15 A2998 RMK A01 T01730147  RH  085%=      5-min Rain = 0
KWE2 250839Z 17008KT 17/15 A2998 RMK A01 T01730147  RH  085%=      5-min Rain = 0
KWE2 250840Z 17008KT 17/15 A2998 RMK A01 T01720148  RH  085%=      5-min Rain = 0
KWE2 250841Z 17008KT 17/15 A2998 RMK A01 T01720148  RH  085%=      5-min Rain = 0
KWE2 250842Z 17008KT 17/15 A2998 RMK A01 T01720148  RH  086%=      5-min Rain = 0
KWE2 250843Z 17008KT 17/15 A2998 RMK A01 T01720148  RH  086%=      5-min Rain = 0
KWE2 250844Z 17008KT 17/15 A2999 RMK A01 T01720148  RH  086%=      5-min Rain = 0
KWE2 250845Z 17008KT 17/15 A2999 RMK A01 T01720148  RH  086%=      5-min Rain = 0
KWE2 250846Z 17007KT 17/15 A2999 RMK A01 T01720148  RH  086%=      5-min Rain = 0
KWE2 250847Z 17007KT 17/15 A2999 RMK A01 T01720148  RH  086%=      5-min Rain = 0
KWE2 250848Z 18006KT 17/15 A2998 RMK A01 T01710148  RH  086%=      5-min Rain = 0
KWE2 250849Z 18005KT 17/15 A2998 RMK A01 T01710148  RH  086%=      5-min Rain = 0
KWE2 250850Z 19005KT 17/15 A2998 RMK A01 T01710147  RH  086%=      5-min Rain = 0
KWE2 250851Z 20005KT 17/15 A2998 RMK A01 T01720148  RH  086%=      5-min Rain = 0
KWE2 250852Z 19005KT 17/15 A2998 RMK A01 T01720147  RH  085%=      5-min Rain = 0
KWE2 250853Z 20005KT 17/15 A2998 RMK A01 T01720147  RH  085%=      5-min Rain = 0
KWE2 250854Z 20005KT 17/15 A2998 RMK A01 T01730147  RH  085%=      5-min Rain = 0
KWE2 250855Z 21006KT 17/15 A2998 RMK A01 T01730147  RH  085%=      5-min Rain = 0
KWE2 250856Z 21005KT 17/15 A2998 RMK A01 T01730147  RH  084%=      5-min Rain = 0
KWE2 250857Z 20005KT 17/15 A2998 RMK A01 T01730147  RH  084%=      5-min Rain = 0
KWE2 250858Z 20006KT 17/15 A2998 RMK A01 T01730147  RH  085%=      5-min Rain = 0
KWE2 250859Z 20005KT 17/15 A2998 RMK A01 T01730146  RH  084%=      5-min Rain = 0
KWE2 250900Z 20005KT 17/15 A2998 RMK A01 T01740146  RH  084%=      5-min Rain = 0
KWE2 250901Z 20005KT 17/15 A2998 RMK A01 T01740147  RH  084%=      5-min Rain = 0
KWE2 250902Z 20005KT 17/15 A2998 RMK A01 T01740147  RH  084%=      5-min Rain = 0
KWE2 250903Z 20004KT 17/15 A2998 RMK A01 T01730147  RH  084%=      5-min Rain = 0
KWE2 250904Z 21004KT 17/15 A2998 RMK A01 T01730147  RH  085%=      5-min Rain = 0
KWE2 250905Z 20004KT 17/15 A2998 RMK A01 T01720147  RH  085%=      5-min Rain = 0
KWE2 250906Z 20004KT 17/15 A2998 RMK A01 T01720147  RH  085%=      5-min Rain = 0
KWE2 250907Z 20004KT 17/15 A2998 RMK A01 T01710147  RH  086%=      5-min Rain = 0
KWE2 250908Z 20004KT 17/15 A2998 RMK A01 T01710147  RH  086%=      5-min Rain = 0
KWE2 250909Z 20004KT 17/15 A2998 RMK A01 T01710147  RH  086%=      5-min Rain = 0
KWE2 250910Z 20004KT 17/15 A2998 RMK A01 T01700147  RH  086%=      5-min Rain = 0
KWE2 250911Z 20004KT 17/15 A2999 RMK A01 T01700148  RH  087%=      5-min Rain = 0
KWE2 250912Z 21004KT 17/15 A2999 RMK A01 T01700148  RH  087%=      5-min Rain = 0
KWE2 250913Z 21003KT 17/15 A2999 RMK A01 T01690148  RH  087%=      5-min Rain = 0
KWE2 250914Z 20003KT 17/15 A2999 RMK A01 T01690148  RH  087%=      5-min Rain = 0
KWE2 250915Z 20003KT 17/15 A2999 RMK A01 T01690148  RH  087%=      5-min Rain = 0
KWE2 250916Z 20003KT 17/15 A2999 RMK A01 T01690148  RH  087%=      5-min Rain = 0
KWE2 250917Z 20003KT 17/15 A2999 RMK A01 T01690148  RH  087%=      5-min Rain = 0
KWE2 250918Z 19003KT 17/15 A2999 RMK A01 T01690148  RH  088%=      5-min Rain = 0
KWE2 250919Z 18003KT 17/15 A2999 RMK A01 T01690148  RH  088%=      5-min Rain = 0
KWE2 250920Z 18003KT 17/15 A2999 RMK A01 T01680148  RH  088%=      5-min Rain = 0
KWE2 250921Z 19003KT 17/15 A2999 RMK A01 T01680149  RH  088%=      5-min Rain = 0
KWE2 250922Z 19003KT 17/15 A2999 RMK A01 T01680149  RH  089%=      5-min Rain = 0
KWE2 250923Z 19004KT 17/15 A2999 RMK A01 T01670149  RH  089%=      5-min Rain = 0
KWE2 250924Z 18004KT 17/15 A2999 RMK A01 T01680149  RH  089%=      5-min Rain = 0
KWE2 250925Z 18004KT 17/15 A2999 RMK A01 T01670149  RH  089%=      5-min Rain = 0
KWE2 250926Z 18004KT 17/15 A2999 RMK A01 T01680149  RH  089%=      5-min Rain = 0
KWE2 250927Z 18004KT 17/15 A2999 RMK A01 T01680149  RH  089%=      5-min Rain = 0
KWE2 250928Z 18004KT 17/15 A2999 RMK A01 T01680149  RH  089%=      5-min Rain = 0
KWE2 250929Z 17003KT 17/15 A2999 RMK A01 T01670150  RH  089%=      5-min Rain = 0
KWE2 250930Z 16003KT 17/15 A2999 RMK A01 T01680150  RH  090%=      5-min Rain = 0
KWE2 250931Z 16003KT 17/15 A2999 RMK A01 T01680151  RH  090%=      5-min Rain = 0
KWE2 250932Z 17003KT 17/15 A2999 RMK A01 T01670151  RH  090%=      5-min Rain = 0
KWE2 250933Z 18003KT 17/15 A2999 RMK A01 T01670152  RH  091%=      5-min Rain = 0
KWE2 250934Z 18003KT 17/15 A2999 RMK A01 T01660152  RH  091%=      5-min Rain = 0
KWE2 250935Z 18003KT 17/15 A2999 RMK A01 T01670152  RH  091%=      5-min Rain = 0
KWE2 250936Z 19004KT 17/15 A2999 RMK A01 T01670152  RH  091%=      5-min Rain = 0
KWE2 250937Z 19004KT 17/15 A2999 RMK A01 T01670152  RH  091%=      5-min Rain = 0
KWE2 250938Z 19004KT 17/15 A2999 RMK A01 T01670152  RH  091%=      5-min Rain = 0
KWE2 250939Z 19004KT 17/15 A2999 RMK A01 T01670151  RH  090%=      5-min Rain = 0
KWE2 250940Z 18004KT 17/15 A2999 RMK A01 T01670151  RH  090%=      5-min Rain = 0
KWE2 250941Z 18004KT 17/15 A2999 RMK A01 T01660151  RH  090%=      5-min Rain = 0
KWE2 250942Z 18004KT 17/15 A2999 RMK A01 T01660151  RH  091%=      5-min Rain = 0
KWE2 250943Z 18004KT 17/15 A2999 RMK A01 T01660151  RH  091%=      5-min Rain = 0
KWE2 250944Z 18004KT 17/15 A2999 RMK A01 T01660152  RH  091%=      5-min Rain = 0
KWE2 250945Z 18004KT 17/15 A2999 RMK A01 T01650152  RH  092%=      5-min Rain = 0
KWE2 250946Z 18004KT 17/15 A2999 RMK A01 T01650152  RH  092%=      5-min Rain = 0
KWE2 250947Z 18004KT 17/15 A2999 RMK A01 T01650151  RH  092%=      5-min Rain = 0
KWE2 250948Z 18004KT 17/15 A2999 RMK A01 T01650151  RH  092%=      5-min Rain = 0
KWE2 250949Z 18004KT 17/15 A2999 RMK A01 T01660152  RH  091%=      5-min Rain = 0
KWE2 250950Z 17004KT 17/15 A2999 RMK A01 T01650151  RH  092%=      5-min Rain = 0
KWE2 250951Z 18004KT 17/15 A2999 RMK A01 T01650152  RH  092%=      5-min Rain = 0
KWE2 250952Z 18005KT 17/15 A2999 RMK A01 T01650152  RH  092%=      5-min Rain = 0
KWE2 250953Z 18005KT 17/15 A2999 RMK A01 T01650152  RH  092%=      5-min Rain = 0
KWE2 250954Z 18005KT 17/15 A2999 RMK A01 T01650152  RH  092%=      5-min Rain = 0
KWE2 250955Z 18005KT 17/15 A2999 RMK A01 T01660152  RH  091%=      5-min Rain = 0
KWE2 250956Z 18005KT 17/15 A2999 RMK A01 T01660151  RH  091%=      5-min Rain = 0
KWE2 250957Z 18005KT 17/15 A2999 RMK A01 T01660151  RH  091%=      5-min Rain = 0
KWE2 250958Z 18005KT 17/15 A2999 RMK A01 T01660151  RH  091%=      5-min Rain = 0
KWE2 250959Z 18005KT 17/15 A2999 RMK A01 T01660151  RH  091%=      5-min Rain = 0
KWE2 251000Z 18005KT 17/15 A2999 RMK A01 T01660151  RH  091%=      5-min Rain = 0
KWE2 251001Z 18005KT 17/15 A2999 RMK A01 T01670151  RH  091%=      5-min Rain = 0
KWE2 251002Z 18005KT 17/15 A2999 RMK A01 T01670151  RH  091%=      5-min Rain = 0
KWE2 251003Z 18005KT 17/15 A2999 RMK A01 T01670151  RH  090%=      5-min Rain = 0
KWE2 251004Z 19005KT 17/15 A2999 RMK A01 T01670151  RH  090%=      5-min Rain = 0
KWE2 251005Z 19006KT 17/15 A2999 RMK A01 T01670150  RH  090%=      5-min Rain = 0
KWE2 251006Z 19005KT 17/15 A2999 RMK A01 T01670150  RH  090%=      5-min Rain = 0
KWE2 251007Z 19005KT 17/15 A2999 RMK A01 T01670150  RH  090%=      5-min Rain = 0
KWE2 251008Z 19005KT 17/15 A2999 RMK A01 T01670150  RH  090%=      5-min Rain = 0
KWE2 251009Z 19005KT 17/15 A2999 RMK A01 T01670150  RH  090%=      5-min Rain = 0
KWE2 251010Z 19005KT 17/15 A2999 RMK A01 T01660150  RH  090%=      5-min Rain = 0
KWE2 251011Z 19005KT 17/15 A2999 RMK A01 T01660150  RH  090%=      5-min Rain = 0
KWE2 251012Z 19005KT 17/15 A2999 RMK A01 T01660150  RH  091%=      5-min Rain = 0
KWE2 251013Z 19005KT 17/15 A2999 RMK A01 T01660150  RH  091%=      5-min Rain = 0
KWE2 251014Z 18005KT 17/15 A2999 RMK A01 T01650150  RH  091%=      5-min Rain = 0
KWE2 251015Z 18005KT 17/15 A2999 RMK A01 T01650151  RH  091%=      5-min Rain = 0
KWE2 251016Z 18005KT 17/15 A2999 RMK A01 T01650151  RH  091%=      5-min Rain = 0
KWE2 251017Z 18005KT 17/15 A2999 RMK A01 T01650152  RH  092%=      5-min Rain = 0
KWE2 251018Z 18005KT 17/15 A2999 RMK A01 T01650151  RH  092%=      5-min Rain = 0
KWE2 251019Z 18006KT 17/15 A2999 RMK A01 T01650151  RH  091%=      5-min Rain = 0
KWE2 251020Z 19006KT 17/15 A2999 RMK A01 T01650151  RH  092%=      5-min Rain = 0
KWE2 251021Z 19006KT 17/15 A2999 RMK A01 T01650151  RH  092%=      5-min Rain = 0
KWE2 251022Z 19006KT 17/15 A2999 RMK A01 T01650151  RH  091%=      5-min Rain = 0
KWE2 251023Z 19006KT 17/15 A2999 RMK A01 T01650151  RH  091%=      5-min Rain = 0
KWE2 251024Z 19006KT 17/15 A2999 RMK A01 T01650151  RH  091%=      5-min Rain = 0
KWE2 251025Z 19006KT 17/15 A2999 RMK A01 T01650151  RH  091%=      5-min Rain = 0
KWE2 251026Z 19006KT 16/15 A2999 RMK A01 T01640150  RH  091%=      5-min Rain = 0
KWE2 251027Z 19006KT 17/15 A2999 RMK A01 T01650151  RH  092%=      5-min Rain = 0
KWE2 251028Z 19006KT 16/15 A2999 RMK A01 T01640150  RH  092%=      5-min Rain = 0
KWE2 251029Z 19006KT 16/15 A2999 RMK A01 T01640150  RH  092%=      5-min Rain = 0
KWE2 251030Z 19006KT 16/15 A2999 RMK A01 T01640150  RH  092%=      5-min Rain = 0
KWE2 251031Z 20006KT 16/15 A2999 RMK A01 T01640150  RH  092%=      5-min Rain = 0
KWE2 251032Z 20006KT 16/15 A2999 RMK A01 T01640150  RH  092%=      5-min Rain = 0
KWE2 251033Z 19006KT 16/15 A2999 RMK A01 T01640150  RH  091%=      5-min Rain = 0
KWE2 251034Z 20006KT 16/15 A2999 RMK A01 T01640149  RH  091%=      5-min Rain = 0
KWE2 251035Z 19006KT 16/15 A2999 RMK A01 T01640148  RH  090%=      5-min Rain = 0
KWE2 251036Z 20006KT 17/15 A2999 RMK A01 T01650148  RH  090%=      5-min Rain = 0
KWE2 251037Z 20005KT 17/15 A2999 RMK A01 T01650148  RH  090%=      5-min Rain = 0
KWE2 251038Z 20006KT 17/15 A2999 RMK A01 T01650147  RH  089%=      5-min Rain = 0
KWE2 251039Z 20006KT 17/15 A30 RMK A01 T01660147  RH  089%=      5-min Rain = 0
KWE2 251040Z 20005KT 17/15 A30 RMK A01 T01660146  RH  088%=      5-min Rain = 0
KWE2 251041Z 20005KT 17/15 A30 RMK A01 T01660146  RH  088%=      5-min Rain = 0
KWE2 251042Z 20005KT 17/15 A30 RMK A01 T01660146  RH  088%=      5-min Rain = 0
KWE2 251043Z 20005KT 17/15 A30 RMK A01 T01660145  RH  088%=      5-min Rain = 0
KWE2 251044Z 20005KT 17/15 A30 RMK A01 T01670146  RH  087%=      5-min Rain = 0
KWE2 251045Z 20005KT 17/15 A30 RMK A01 T01660145  RH  087%=      5-min Rain = 0
KWE2 251046Z 20005KT 17/15 A30 RMK A01 T01670145  RH  087%=      5-min Rain = 0
KWE2 251047Z 20005KT 17/15 A30 RMK A01 T01670145  RH  087%=      5-min Rain = 0
KWE2 251048Z 20006KT 17/15 A30 RMK A01 T01670145  RH  087%=      5-min Rain = 0
KWE2 251049Z 20006KT 17/15 A30 RMK A01 T01670145  RH  087%=      5-min Rain = 0
KWE2 251050Z 21006KT 17/15 A30 RMK A01 T01670145  RH  087%=      5-min Rain = 0
KWE2 251051Z 21005KT 17/14 A30 RMK A01 T01670144  RH  087%=      5-min Rain = 0
KWE2 251052Z 21005KT 17/14 A30 RMK A01 T01670144  RH  086%=      5-min Rain = 0
KWE2 251053Z 21006KT 17/14 A30 RMK A01 T01670144  RH  086%=      5-min Rain = 0
KWE2 251054Z 21005KT 17/14 A30 RMK A01 T01670144  RH  086%=      5-min Rain = 0
KWE2 251055Z 21005KT 17/14 A30 RMK A01 T01670144  RH  086%=      5-min Rain = 0
KWE2 251056Z 21005KT 17/15 A30 RMK A01 T01670145  RH  086%=      5-min Rain = 0
KWE2 251057Z 21005KT 17/14 A30 RMK A01 T01670144  RH  086%=      5-min Rain = 0
KWE2 251058Z 21004KT 17/14 A30 RMK A01 T01670144  RH  087%=      5-min Rain = 0
KWE2 251059Z 21004KT 17/14 A30 RMK A01 T01670144  RH  087%=      5-min Rain = 0
KWE2 251100Z 21004KT 17/14 A30 RMK A01 T01660144  RH  087%=      5-min Rain = 0
KWE2 251101Z 21003KT 17/14 A30 RMK A01 T01660144  RH  087%=      5-min Rain = 0
KWE2 251102Z 21002KT 17/14 A30 RMK A01 T01660144  RH  087%=      5-min Rain = 0
KWE2 251103Z 22002KT 17/14 A30 RMK A01 T01650144  RH  087%=      5-min Rain = 0
KWE2 251104Z 22002KT 17/14 A30 RMK A01 T01650144  RH  087%=      5-min Rain = 0
KWE2 251105Z 22002KT 17/14 A30 RMK A01 T01650144  RH  088%=      5-min Rain = 0
KWE2 251106Z 22002KT 16/14 A30 RMK A01 T01640144  RH  088%=      5-min Rain = 0
KWE2 251107Z 22002KT 16/14 A30 RMK A01 T01640144  RH  088%=      5-min Rain = 0
KWE2 251108Z 22002KT 16/14 A30 RMK A01 T01640144  RH  088%=      5-min Rain = 0
KWE2 251109Z 23002KT 16/14 A30 RMK A01 T01630144  RH  088%=      5-min Rain = 0
KWE2 251110Z 23002KT 16/15 A30 RMK A01 T01630145  RH  089%=      5-min Rain = 0
KWE2 251111Z 24002KT 16/14 A30 RMK A01 T01630144  RH  089%=      5-min Rain = 0
KWE2 251112Z 23002KT 16/14 A30 RMK A01 T01630144  RH  089%=      5-min Rain = 0
KWE2 251113Z 23002KT 16/14 A30 RMK A01 T01630144  RH  088%=      5-min Rain = 0
KWE2 251114Z 23002KT 16/14 A30 RMK A01 T01640144  RH  088%=      5-min Rain = 0
KWE2 251115Z 22002KT 16/14 A3001 RMK A01 T01630144  RH  088%=      5-min Rain = 0
KWE2 251116Z 21002KT 16/14 A3001 RMK A01 T01630144  RH  088%=      5-min Rain = 0
KWE2 251117Z 20002KT 16/14 A3001 RMK A01 T01630144  RH  088%=      5-min Rain = 0
KWE2 251118Z 20002KT 16/14 A3001 RMK A01 T01630144  RH  088%=      5-min Rain = 0
KWE2 251119Z 21002KT 16/14 A3001 RMK A01 T01620143  RH  088%=      5-min Rain = 0
KWE2 251120Z 21002KT 16/14 A3001 RMK A01 T01630143  RH  088%=      5-min Rain = 0
KWE2 251121Z 21003KT 16/14 A3001 RMK A01 T01630143  RH  088%=      5-min Rain = 0
KWE2 251122Z 22003KT 16/14 A3001 RMK A01 T01640143  RH  088%=      5-min Rain = 0
KWE2 251123Z 22003KT 16/14 A3001 RMK A01 T01640142  RH  087%=      5-min Rain = 0
KWE2 251124Z 22003KT 16/14 A3001 RMK A01 T01640142  RH  087%=      5-min Rain = 0
KWE2 251125Z 22003KT 16/14 A3001 RMK A01 T01640143  RH  087%=      5-min Rain = 0
KWE2 251126Z 22004KT 16/14 A3001 RMK A01 T01640142  RH  087%=      5-min Rain = 0
KWE2 251127Z 22004KT 17/14 A3001 RMK A01 T01650142  RH  087%=      5-min Rain = 0
KWE2 251128Z 22004KT 17/14 A3001 RMK A01 T01650143  RH  087%=      5-min Rain = 0
KWE2 251129Z 22004KT 17/14 A3001 RMK A01 T01650143  RH  087%=      5-min Rain = 0
KWE2 251130Z 22004KT 16/14 A3001 RMK A01 T01640142  RH  087%=      5-min Rain = 0
KWE2 251131Z 22005KT 16/14 A3001 RMK A01 T01640142  RH  086%=      5-min Rain = 0
KWE2 251132Z 22005KT 16/14 A3001 RMK A01 T01640141  RH  086%=      5-min Rain = 0
KWE2 251133Z 22005KT 16/14 A3001 RMK A01 T01640141  RH  087%=      5-min Rain = 0
KWE2 251134Z 22006KT 16/14 A3001 RMK A01 T01640141  RH  087%=      5-min Rain = 0
KWE2 251135Z 22006KT 16/14 A3001 RMK A01 T01640142  RH  087%=      5-min Rain = 0
KWE2 251136Z 22006KT 16/14 A3001 RMK A01 T01640142  RH  087%=      5-min Rain = 0
KWE2 251137Z 22006KT 16/14 A3001 RMK A01 T01640141  RH  086%=      5-min Rain = 0
KWE2 251138Z 22006KT 16/14 A3001 RMK A01 T01640141  RH  086%=      5-min Rain = 0
KWE2 251139Z 22006KT 16/14 A3001 RMK A01 T01640142  RH  087%=      5-min Rain = 0
KWE2 251140Z 22006KT 16/14 A3001 RMK A01 T01640142  RH  087%=      5-min Rain = 0
KWE2 251141Z 23006KT 16/14 A3001 RMK A01 T01640142  RH  087%=      5-min Rain = 0
KWE2 251142Z 23006KT 16/14 A3001 RMK A01 T01640142  RH  087%=      5-min Rain = 0
KWE2 251143Z 23006KT 16/14 A3001 RMK A01 T01640141  RH  087%=      5-min Rain = 0
KWE2 251144Z 23006KT 16/14 A3001 RMK A01 T01640141  RH  086%=      5-min Rain = 0
KWE2 251145Z 23006KT 16/14 A3001 RMK A01 T01640141  RH  086%=      5-min Rain = 0
KWE2 251146Z 23006KT 16/14 A3002 RMK A01 T01640141  RH  086%=      5-min Rain = 0
KWE2 251147Z 23005KT 16/14 A3002 RMK A01 T01640140  RH  086%=      5-min Rain = 0
KWE2 251148Z 23005KT 16/14 A3002 RMK A01 T01640141  RH  086%=      5-min Rain = 0
KWE2 251149Z 23005KT 16/14 A3002 RMK A01 T01640141  RH  086%=      5-min Rain = 0
KWE2 251150Z 23005KT 16/14 A3002 RMK A01 T01640140  RH  086%=      5-min Rain = 0
KWE2 251151Z 23005KT 16/14 A3002 RMK A01 T01640140  RH  086%=      5-min Rain = 0
KWE2 251152Z 22005KT 16/14 A3002 RMK A01 T01640140  RH  086%=      5-min Rain = 0
KWE2 251153Z 23005KT 16/14 A3002 RMK A01 T01630139  RH  086%=      5-min Rain = 0
KWE2 251154Z 22005KT 16/14 A3002 RMK A01 T01640140  RH  086%=      5-min Rain = 0
KWE2 251155Z 22005KT 16/14 A3002 RMK A01 T01640140  RH  086%=      5-min Rain = 0
KWE2 251156Z 23005KT 16/14 A3002 RMK A01 T01630140  RH  086%=      5-min Rain = 0
KWE2 251157Z 23005KT 16/14 A3002 RMK A01 T01630140  RH  086%=      5-min Rain = 0
KWE2 251158Z 23005KT 16/14 A3002 RMK A01 T01630140  RH  086%=      5-min Rain = 0
KWE2 251159Z 23005KT 16/14 A3002 RMK A01 T01630140  RH  086%=      5-min Rain = 0
KWE2 251200Z 23005KT 16/14 A3002 RMK A01 T01640140  RH  086%=      5-min Rain = 0
KWE2 251201Z 23004KT 16/14 A3002 RMK A01 T01640140  RH  086%=      5-min Rain = 0
KWE2 251202Z 23004KT 16/14 A3002 RMK A01 T01640140  RH  085%=      5-min Rain = 0
KWE2 251203Z 23005KT 17/14 A3002 RMK A01 T01650140  RH  085%=      5-min Rain = 0
KWE2 251204Z 23005KT 17/14 A3002 RMK A01 T01650140  RH  085%=      5-min Rain = 0
KWE2 251205Z 23005KT 17/14 A3002 RMK A01 T01650140  RH  085%=      5-min Rain = 0
KWE2 251206Z 23005KT 17/14 A3002 RMK A01 T01650140  RH  085%=      5-min Rain = 0
KWE2 251207Z 23005KT 17/14 A3002 RMK A01 T01660141  RH  085%=      5-min Rain = 0
KWE2 251208Z 23004KT 17/14 A3002 RMK A01 T01660141  RH  085%=      5-min Rain = 0
KWE2 251209Z 23004KT 17/14 A3002 RMK A01 T01660141  RH  085%=      5-min Rain = 0
KWE2 251210Z 23003KT 17/14 A3002 RMK A01 T01660141  RH  085%=      5-min Rain = 0
KWE2 251211Z 24004KT 17/14 A3002 RMK A01 T01660141  RH  085%=      5-min Rain = 0
KWE2 251212Z 24004KT 17/14 A3002 RMK A01 T01670141  RH  085%=      5-min Rain = 0
KWE2 251213Z 24003KT 17/14 A3002 RMK A01 T01670141  RH  085%=      5-min Rain = 0
KWE2 251214Z 23003KT 17/14 A3002 RMK A01 T01680142  RH  085%=      5-min Rain = 0
KWE2 251215Z 23003KT 17/14 A3002 RMK A01 T01680142  RH  084%=      5-min Rain = 0
KWE2 251216Z 23003KT 17/14 A3002 RMK A01 T01680141  RH  084%=      5-min Rain = 0
KWE2 251217Z 23003KT 17/14 A3002 RMK A01 T01680141  RH  084%=      5-min Rain = 0
KWE2 251218Z 22003KT 17/14 A3002 RMK A01 T01690141  RH  084%=      5-min Rain = 0
KWE2 251219Z 22003KT 17/14 A3002 RMK A01 T01680142  RH  084%=      5-min Rain = 0
KWE2 251220Z 22003KT 17/14 A3002 RMK A01 T01690142  RH  085%=      5-min Rain = 0
KWE2 251221Z 22003KT 17/14 A3002 RMK A01 T01680143  RH  085%=      5-min Rain = 0
KWE2 251222Z 22003KT 17/14 A3002 RMK A01 T01690143  RH  085%=      5-min Rain = 0
KWE2 251223Z 23003KT 17/14 A3002 RMK A01 T01690143  RH  085%=      5-min Rain = 0
KWE2 251224Z 23003KT 17/14 A3002 RMK A01 T01700144  RH  085%=      5-min Rain = 0
KWE2 251225Z 23003KT 17/14 A3002 RMK A01 T01700143  RH  084%=      5-min Rain = 0
KWE2 251226Z 23003KT 17/14 A3002 RMK A01 T01700142  RH  084%=      5-min Rain = 0
KWE2 251227Z 24003KT 17/14 A3002 RMK A01 T01710143  RH  084%=      5-min Rain = 0
KWE2 251228Z 23003KT 17/14 A3002 RMK A01 T01710142  RH  083%=      5-min Rain = 0
KWE2 251229Z 23003KT 17/14 A3002 RMK A01 T01710143  RH  084%=      5-min Rain = 0
KWE2 251230Z 23004KT 17/14 A3002 RMK A01 T01720143  RH  083%=      5-min Rain = 0
KWE2 251231Z 23003KT 17/14 A3002 RMK A01 T01720143  RH  083%=      5-min Rain = 0
KWE2 251232Z 24003KT 17/14 A3002 RMK A01 T01730144  RH  083%=      5-min Rain = 0
KWE2 251233Z 23003KT 17/14 A3002 RMK A01 T01740144  RH  083%=      5-min Rain = 0
KWE2 251234Z 23003KT 17/14 A3002 RMK A01 T01740143  RH  082%=      5-min Rain = 0
KWE2 251235Z 23003KT 17/14 A3002 RMK A01 T01740143  RH  082%=      5-min Rain = 0
KWE2 251236Z 22003KT 18/14 A3003 RMK A01 T01750143  RH  082%=      5-min Rain = 0
KWE2 251237Z 22003KT 18/15 A3003 RMK A01 T01750145  RH  082%=      5-min Rain = 0
KWE2 251238Z 22003KT 18/14 A3003 RMK A01 T01760144  RH  082%=      5-min Rain = 0
KWE2 251239Z 22003KT 18/14 A3003 RMK A01 T01760144  RH  081%=      5-min Rain = 0
KWE2 251240Z 21003KT 18/14 A3003 RMK A01 T01770143  RH  081%=      5-min Rain = 0
KWE2 251241Z 22003KT 18/14 A3003 RMK A01 T01770144  RH  081%=      5-min Rain = 0
KWE2 251242Z 22003KT 18/15 A3003 RMK A01 T01770145  RH  081%=      5-min Rain = 0
KWE2 251243Z 22004KT 18/15 A3003 RMK A01 T01780145  RH  081%=      5-min Rain = 0
KWE2 251244Z 22004KT 18/14 A3003 RMK A01 T01790144  RH  080%=      5-min Rain = 0
KWE2 251245Z 22003KT 18/15 A3003 RMK A01 T01800145  RH  080%=      5-min Rain = 0
KWE2 251246Z 22004KT 18/15 A3003 RMK A01 T01800145  RH  080%=      5-min Rain = 0
KWE2 251247Z 22004KT 18/15 A3003 RMK A01 T01810146  RH  080%=      5-min Rain = 0
KWE2 251248Z 22004KT 18/15 A3003 RMK A01 T01810145  RH  079%=      5-min Rain = 0
KWE2 251249Z 21005KT 18/15 A3003 RMK A01 T01820146  RH  080%=      5-min Rain = 0
KWE2 251250Z 22004KT 18/15 A3003 RMK A01 T01830146  RH  079%=      5-min Rain = 0
KWE2 251251Z 21005KT 18/15 A3003 RMK A01 T01840147  RH  079%=      5-min Rain = 0
KWE2 251252Z 21006KT 19/15 A3003 RMK A01 T01850147  RH  079%=      5-min Rain = 0
KWE2 251253Z 21006KT 19/15 A3003 RMK A01 T01850148  RH  079%=      5-min Rain = 0
KWE2 251254Z 21007KT 19/15 A3003 RMK A01 T01860148  RH  078%=      5-min Rain = 0
KWE2 251255Z 21006KT 19/15 A3003 RMK A01 T01870149  RH  078%=      5-min Rain = 0
KWE2 251256Z 21007KT 19/15 A3003 RMK A01 T01880150  RH  078%=      5-min Rain = 0
KWE2 251257Z 21008KT 19/15 A3003 RMK A01 T01890150  RH  078%=      5-min Rain = 0
KWE2 251258Z 22008KT 19/15 A3003 RMK A01 T01890151  RH  078%=      5-min Rain = 0
KWE2 251259Z 22007KT 19/15 A3003 RMK A01 T01900151  RH  078%=      5-min Rain = 0
KWE2 251300Z 22008KT 19/15 A3003 RMK A01 T01910152  RH  078%=      5-min Rain = 0
KWE2 251301Z 22008KT 19/15 A3003 RMK A01 T01920153  RH  078%=      5-min Rain = 0
KWE2 251302Z 22008KT 19/15 A3003 RMK A01 T01920153  RH  078%=      5-min Rain = 0
KWE2 251303Z 22007KT 19/15 A3003 RMK A01 T01930154  RH  078%=      5-min Rain = 0
KWE2 251304Z 22008KT 19/16 A3003 RMK A01 T01940155  RH  078%=      5-min Rain = 0
KWE2 251305Z 22008KT 20/16 A3003 RMK A01 T01950156  RH  078%=      5-min Rain = 0
KWE2 251306Z 22008KT 20/16 A3003 RMK A01 T01960156  RH  078%=      5-min Rain = 0
KWE2 251307Z 22008KT 20/16 A3003 RMK A01 T01960156  RH  078%=      5-min Rain = 0
KWE2 251308Z 22009KT 20/16 A3003 RMK A01 T01970157  RH  078%=      5-min Rain = 0
KWE2 251309Z 22009KT 20/16 A3003 RMK A01 T01980158  RH  078%=      5-min Rain = 0
KWE2 251310Z 22011KT 20/16 A3003 RMK A01 T01980158  RH  077%=      5-min Rain = 0
KWE2 251311Z 22011KT 20/16 A3003 RMK A01 T01990158  RH  077%=      5-min Rain = 0
KWE2 251312Z 22010KT 20/16 A3003 RMK A01 T01990160  RH  078%=      5-min Rain = 0
KWE2 251313Z 22012KT 20/16 A3003 RMK A01 T02000161  RH  078%=      5-min Rain = 0
KWE2 251314Z 21012KT 20/16 A3003 RMK A01 T02010161  RH  078%=      5-min Rain = 0
KWE2 251315Z 22010KT 20/16 A3003 RMK A01 T02010162  RH  078%=      5-min Rain = 0
KWE2 251316Z 22011KT 20/16 A3003 RMK A01 T02020162  RH  077%=      5-min Rain = 0
KWE2 251317Z 22011KT 20/16 A3003 RMK A01 T02030162  RH  077%=      5-min Rain = 0
KWE2 251318Z 22012KT 20/16 A3003 RMK A01 T02030163  RH  078%=      5-min Rain = 0
KWE2 251319Z 22012KT 20/16 A3003 RMK A01 T02040163  RH  077%=      5-min Rain = 0
KWE2 251320Z 22012KT 20/16 A3003 RMK A01 T02040163  RH  077%=      5-min Rain = 0
KWE2 251321Z 22011KT 21/16 A3003 RMK A01 T02050163  RH  077%=      5-min Rain = 0
KWE2 251322Z 22011KT 21/16 A3003 RMK A01 T02050163  RH  077%=      5-min Rain = 0
KWE2 251323Z 22012KT 21/16 A3003 RMK A01 T02060164  RH  077%=      5-min Rain = 0
KWE2 251324Z 22013KT 21/16 A3003 RMK A01 T02060164  RH  077%=      5-min Rain = 0
KWE2 251325Z 22013KT 21/17 A3003 RMK A01 T02070165  RH  077%=      5-min Rain = 0
KWE2 251326Z 22013KT 21/17 A3003 RMK A01 T02070165  RH  077%=      5-min Rain = 0
KWE2 251327Z 22014KT 21/17 A3003 RMK A01 T02070165  RH  077%=      5-min Rain = 0
KWE2 251328Z 22012KT 21/17 A3003 RMK A01 T02070165  RH  077%=      5-min Rain = 0
KWE2 251329Z 22013KT 21/17 A3003 RMK A01 T02070165  RH  076%=      5-min Rain = 0
KWE2 251330Z 22013KT 21/17 A3003 RMK A01 T02080165  RH  076%=      5-min Rain = 0
KWE2 251331Z 22014KT 21/17 A3003 RMK A01 T02080165  RH  076%=      5-min Rain = 0
KWE2 251332Z 22013KT 21/17 A3003 RMK A01 T02090165  RH  076%=      5-min Rain = 0
KWE2 251333Z 22011KT 21/17 A3003 RMK A01 T02090166  RH  076%=      5-min Rain = 0
KWE2 251334Z 22011KT 21/17 A3003 RMK A01 T02100166  RH  076%=      5-min Rain = 0
KWE2 251335Z 22010KT 21/17 A3003 RMK A01 T02110166  RH  075%=      5-min Rain = 0
KWE2 251336Z 22012KT 21/17 A3003 RMK A01 T02110166  RH  075%=      5-min Rain = 0
KWE2 251337Z 22010KT 21/17 A3003 RMK A01 T02120166  RH  075%=      5-min Rain = 0
KWE2 251338Z 22013KT 21/17 A3003 RMK A01 T02120167  RH  075%=      5-min Rain = 0
KWE2 251339Z 22012KT 21/17 A3003 RMK A01 T02120167  RH  075%=      5-min Rain = 0
KWE2 251340Z 22012KT 21/17 A3003 RMK A01 T02120167  RH  075%=      5-min Rain = 0
KWE2 251341Z 22013KT 21/17 A3003 RMK A01 T02120168  RH  076%=      5-min Rain = 0
KWE2 251342Z 22013KT 21/17 A3003 RMK A01 T02130168  RH  075%=      5-min Rain = 0
KWE2 251343Z 22015KT 21/17 A3003 RMK A01 T02130169  RH  076%=      5-min Rain = 0
KWE2 251344Z 22016KT 21/17 A3003 RMK A01 T02130169  RH  076%=      5-min Rain = 0
KWE2 251345Z 22015KT 21/17 A3003 RMK A01 T02140168  RH  075%=      5-min Rain = 0
KWE2 251346Z 22011KT 21/17 A3003 RMK A01 T02140169  RH  075%=      5-min Rain = 0
KWE2 251347Z 22013KT 22/17 A3003 RMK A01 T02150170  RH  076%=      5-min Rain = 0
KWE2 251348Z 22014KT 22/17 A3003 RMK A01 T02160170  RH  075%=      5-min Rain = 0
KWE2 251349Z 22013KT 22/17 A3003 RMK A01 T02160170  RH  075%=      5-min Rain = 0
KWE2 251350Z 22013KT 22/17 A3003 RMK A01 T02170171  RH  075%=      5-min Rain = 0
KWE2 251351Z 22012KT 22/17 A3003 RMK A01 T02170171  RH  075%=      5-min Rain = 0
KWE2 251352Z 22013KT 22/17 A3003 RMK A01 T02180171  RH  075%=      5-min Rain = 0
KWE2 251353Z 22014KT 22/17 A3003 RMK A01 T02180171  RH  074%=      5-min Rain = 0
KWE2 251354Z 21013KT 22/17 A3003 RMK A01 T02190172  RH  075%=      5-min Rain = 0
KWE2 251355Z 22012KT 22/17 A3004 RMK A01 T02200172  RH  074%=      5-min Rain = 0
KWE2 251356Z 22015KT 22/17 A3003 RMK A01 T02210172  RH  074%=      5-min Rain = 0
KWE2 251357Z 22014KT 22/17 A3003 RMK A01 T02210173  RH  074%=      5-min Rain = 0
KWE2 251358Z 22017KT 22/17 A3003 RMK A01 T02220172  RH  073%=      5-min Rain = 0
KWE2 251359Z 21016KT 22/17 A3003 RMK A01 T02210173  RH  074%=      5-min Rain = 0
KWE2 251400Z 21015KT 22/17 A3004 RMK A01 T02210173  RH  074%=      5-min Rain = 0
KWE2 251401Z 22014KT 22/17 A3004 RMK A01 T02220174  RH  074%=      5-min Rain = 0
KWE2 251402Z 22015KT 22/17 A3004 RMK A01 T02240173  RH  073%=      5-min Rain = 0
KWE2 251403Z 22017KT 22/17 A3004 RMK A01 T02240173  RH  073%=      5-min Rain = 0
KWE2 251404Z 22016KT 22/17 A3004 RMK A01 T02230172  RH  073%=      5-min Rain = 0
KWE2 251405Z 21015KT 22/17 A3004 RMK A01 T02240173  RH  073%=      5-min Rain = 0
KWE2 251406Z 22017KT 22/17 A3004 RMK A01 T02240173  RH  073%=      5-min Rain = 0
KWE2 251407Z 22017KT 22/17 A3004 RMK A01 T02240173  RH  073%=      5-min Rain = 0
KWE2 251408Z 21015KT 23/17 A3004 RMK A01 T02250174  RH  073%=      5-min Rain = 0
KWE2 251409Z 22013KT 23/17 A3004 RMK A01 T02250174  RH  073%=      5-min Rain = 0
KWE2 251410Z 22016KT 23/17 A3004 RMK A01 T02250173  RH  072%=      5-min Rain = 0
KWE2 251411Z 22017KT 23/17 A3004 RMK A01 T02260173  RH  072%=      5-min Rain = 0
KWE2 251412Z 21016KT 23/17 A3004 RMK A01 T02250173  RH  072%=      5-min Rain = 0
KWE2 251413Z 21016KT 23/17 A3004 RMK A01 T02260173  RH  072%=      5-min Rain = 0
KWE2 251414Z 21015KT 23/17 A3004 RMK A01 T02260174  RH  072%=      5-min Rain = 0
KWE2 251415Z 21016KT 23/17 A3004 RMK A01 T02270174  RH  072%=      5-min Rain = 0
KWE2 251416Z 22015KT 23/17 A3004 RMK A01 T02270173  RH  071%=      5-min Rain = 0
KWE2 251417Z 21015KT 23/17 A3004 RMK A01 T02270174  RH  072%=      5-min Rain = 0
KWE2 251418Z 21015KT 23/17 A3004 RMK A01 T02270173  RH  072%=      5-min Rain = 0
KWE2 251419Z 21015KT 23/17 A3004 RMK A01 T02270174  RH  072%=      5-min Rain = 0
KWE2 251420Z 22015KT 23/17 A3004 RMK A01 T02280174  RH  072%=      5-min Rain = 0
KWE2 251421Z 22011KT 23/18 A3004 RMK A01 T02290175  RH  072%=      5-min Rain = 0
KWE2 251422Z 22012KT 23/18 A3004 RMK A01 T02300176  RH  072%=      5-min Rain = 0
KWE2 251423Z 22014KT 23/18 A3004 RMK A01 T02320175  RH  070%=      5-min Rain = 0
KWE2 251424Z 21013KT 23/18 A3004 RMK A01 T02320175  RH  070%=      5-min Rain = 0
KWE2 251425Z 21012KT 23/18 A3004 RMK A01 T02330178  RH  071%=      5-min Rain = 0
KWE2 251426Z 20016KT 24/18 A3004 RMK A01 T02360176  RH  069%=      5-min Rain = 0
KWE2 251427Z 20016KT 24/18 A3004 RMK A01 T02350177  RH  070%=      5-min Rain = 0
KWE2 251428Z 21015KT 24/18 A3004 RMK A01 T02350175  RH  069%=      5-min Rain = 0
KWE2 251429Z 21015KT 23/18 A3004 RMK A01 T02340175  RH  069%=      5-min Rain = 0
KWE2 251430Z 20013KT 23/18 A3004 RMK A01 T02330176  RH  070%=      5-min Rain = 0
KWE2 251431Z 20015KT 23/18 A3004 RMK A01 T02340176  RH  070%=      5-min Rain = 0
KWE2 251432Z 20014KT 23/18 A3004 RMK A01 T02340176  RH  070%=      5-min Rain = 0
KWE2 251433Z 20014KT 24/18 A3004 RMK A01 T02350177  RH  070%=      5-min Rain = 0
KWE2 251434Z 21014KT 24/18 A3004 RMK A01 T02360177  RH  070%=      5-min Rain = 0
KWE2 251435Z 21015KT 24/18 A3004 RMK A01 T02360177  RH  069%=      5-min Rain = 0
KWE2 251436Z 22016KT 24/18 A3004 RMK A01 T02370177  RH  069%=      5-min Rain = 0
KWE2 251437Z 21015KT 24/18 A3004 RMK A01 T02360175  RH  069%=      5-min Rain = 0
KWE2 251438Z 20012KT 24/18 A3004 RMK A01 T02360178  RH  070%=      5-min Rain = 0
KWE2 251439Z 21016KT 24/18 A3004 RMK A01 T02390178  RH  069%=      5-min Rain = 0
KWE2 251440Z 20015KT 24/18 A3004 RMK A01 T02390177  RH  068%=      5-min Rain = 0
KWE2 251441Z 20016KT 24/18 A3004 RMK A01 T02380176  RH  068%=      5-min Rain = 0
KWE2 251442Z 21014KT 24/18 A3004 RMK A01 T02380176  RH  068%=      5-min Rain = 0
KWE2 251443Z 21014KT 24/18 A3004 RMK A01 T02380177  RH  068%=      5-min Rain = 0
KWE2 251444Z 21014KT 24/18 A3004 RMK A01 T02390177  RH  068%=      5-min Rain = 0
KWE2 251445Z 20012KT 24/18 A3004 RMK A01 T02410178  RH  068%=      5-min Rain = 0
KWE2 251446Z 21013KT 24/18 A3004 RMK A01 T02420177  RH  067%=      5-min Rain = 0
KWE2 251447Z 21013KT 24/18 A3004 RMK A01 T02420178  RH  067%=      5-min Rain = 0
KWE2 251448Z 21013KT 24/18 A3004 RMK A01 T02420178  RH  067%=      5-min Rain = 0
KWE2 251449Z 21012KT 24/18 A3004 RMK A01 T02410179  RH  068%=      5-min Rain = 0
KWE2 251450Z 21014KT 24/18 A3004 RMK A01 T02420178  RH  067%=      5-min Rain = 0
KWE2 251451Z 21015KT 24/18 A3004 RMK A01 T02430177  RH  067%=      5-min Rain = 0
KWE2 251452Z 22014KT 24/18 A3004 RMK A01 T02430178  RH  067%=      5-min Rain = 0
KWE2 251453Z 23013KT 24/18 A3004 RMK A01 T02440178  RH  067%=      5-min Rain = 0
KWE2 251454Z 22012KT 25/18 A3004 RMK A01 T02460179  RH  066%=      5-min Rain = 0
KWE2 251455Z 21012KT 25/18 A3004 RMK A01 T02470178  RH  066%=      5-min Rain = 0
KWE2 251456Z 20015KT 25/18 A3004 RMK A01 T02490178  RH  065%=      5-min Rain = 0
KWE2 251457Z 20016KT 25/18 A3004 RMK A01 T02500177  RH  064%=      5-min Rain = 0
KWE2 251458Z 21015KT 25/18 A3004 RMK A01 T02500178  RH  064%=      5-min Rain = 0
KWE2 251459Z 20014KT 25/18 A3004 RMK A01 T02500179  RH  065%=      5-min Rain = 0
KWE2 251500Z 20015KT 25/18 A3003 RMK A01 T02510178  RH  064%=      5-min Rain = 0
KWE2 251501Z 19015KT 25/18 A3003 RMK A01 T02510179  RH  064%=      5-min Rain = 0
KWE2 251502Z 20015KT 25/18 A3003 RMK A01 T02510177  RH  063%=      5-min Rain = 0
KWE2 251503Z 21015KT 25/18 A3003 RMK A01 T02520178  RH  063%=      5-min Rain = 0
KWE2 251504Z 22014KT 25/18 A3003 RMK A01 T02520176  RH  063%=      5-min Rain = 0
KWE2 251505Z 22013KT 25/18 A3003 RMK A01 T02530176  RH  063%=      5-min Rain = 0
KWE2 251506Z 22015KT 25/18 A3003 RMK A01 T02540176  RH  062%=      5-min Rain = 0
KWE2 251507Z 22014KT 25/18 A3003 RMK A01 T02540177  RH  062%=      5-min Rain = 0
KWE2 251508Z 22013KT 26/18 A3003 RMK A01 T02550176  RH  062%=      5-min Rain = 0
KWE2 251509Z 21014KT 26/18 A3003 RMK A01 T02550176  RH  062%=      5-min Rain = 0
KWE2 251510Z 21013KT 25/18 A3003 RMK A01 T02540177  RH  062%=      5-min Rain = 0
KWE2 251511Z 22014KT 25/18 A3003 RMK A01 T02540178  RH  063%=      5-min Rain = 0
KWE2 251512Z 21014KT 26/18 A3003 RMK A01 T02550177  RH  062%=      5-min Rain = 0
KWE2 251513Z 22012KT 26/18 A3003 RMK A01 T02550177  RH  062%=      5-min Rain = 0
KWE2 251514Z 23012KT 26/18 A3003 RMK A01 T02560178  RH  062%=      5-min Rain = 0
KWE2 251515Z 21012KT 26/18 A3003 RMK A01 T02570178  RH  061%=      5-min Rain = 0
KWE2 251516Z 20013KT 26/18 A3003 RMK A01 T02570178  RH  062%=      5-min Rain = 0
KWE2 251517Z 20015KT 26/18 A3003 RMK A01 T02570177  RH  061%=      5-min Rain = 0
KWE2 251518Z 20012KT 26/18 A3003 RMK A01 T02570178  RH  062%=      5-min Rain = 0
KWE2 251519Z 20014KT 26/18 A3003 RMK A01 T02590178  RH  061%=      5-min Rain = 0
KWE2 251520Z 22012KT 26/18 A3003 RMK A01 T02600177  RH  060%=      5-min Rain = 0
KWE2 251521Z 20013KT 26/18 A3003 RMK A01 T02600177  RH  060%=      5-min Rain = 0
KWE2 251522Z 21014KT 26/18 A3003 RMK A01 T02620176  RH  059%=      5-min Rain = 0
KWE2 251523Z 21015KT 26/18 A3003 RMK A01 T02620176  RH  059%=      5-min Rain = 0
KWE2 251524Z 21012KT 26/18 A3003 RMK A01 T02610177  RH  060%=      5-min Rain = 0
KWE2 251525Z 21015KT 26/18 A3003 RMK A01 T02600176  RH  060%=      5-min Rain = 0
KWE2 251526Z 22013KT 26/17 A3003 RMK A01 T02600174  RH  059%=      5-min Rain = 0
KWE2 251527Z 22012KT 26/18 A3003 RMK A01 T02620175  RH  059%=      5-min Rain = 0
KWE2 251528Z 23012KT 26/18 A3003 RMK A01 T02630175  RH  058%=      5-min Rain = 0
KWE2 251529Z 22010KT 26/18 A3003 RMK A01 T02640177  RH  059%=      5-min Rain = 0
KWE2 251530Z 21010KT 27/18 A3003 RMK A01 T02680178  RH  058%=      5-min Rain = 0
KWE2 251531Z 22012KT 27/18 A3003 RMK A01 T02690178  RH  058%=      5-min Rain = 0
KWE2 251532Z 22012KT 27/18 A3003 RMK A01 T02680178  RH  058%=      5-min Rain = 0
KWE2 251533Z 21012KT 27/18 A3003 RMK A01 T02670178  RH  058%=      5-min Rain = 0
KWE2 251534Z 23010KT 27/18 A3003 RMK A01 T02660177  RH  058%=      5-min Rain = 0
KWE2 251535Z 23014KT 27/17 A3003 RMK A01 T02680173  RH  056%=      5-min Rain = 0
KWE2 251536Z 23012KT 27/17 A3003 RMK A01 T02680173  RH  056%=      5-min Rain = 0
KWE2 251537Z 23013KT 27/17 A3003 RMK A01 T02680173  RH  056%=      5-min Rain = 0
KWE2 251538Z 22013KT 27/17 A3003 RMK A01 T02680173  RH  056%=      5-min Rain = 0
KWE2 251539Z 22012KT 27/17 A3003 RMK A01 T02680173  RH  056%=      5-min Rain = 0
KWE2 251540Z 20013KT 27/17 A3003 RMK A01 T02700174  RH  055%=      5-min Rain = 0
KWE2 251541Z 21014KT 27/18 A3003 RMK A01 T02700175  RH  056%=      5-min Rain = 0
KWE2 251542Z 22013KT 27/17 A3003 RMK A01 T02710174  RH  055%=      5-min Rain = 0
KWE2 251543Z 21012KT 27/18 A3003 RMK A01 T02690175  RH  056%=      5-min Rain = 0
KWE2 251544Z 22011KT 27/18 A3003 RMK A01 T02690176  RH  057%=      5-min Rain = 0
KWE2 251545Z 21010KT 27/18 A3003 RMK A01 T02690175  RH  056%=      5-min Rain = 0
KWE2 251546Z 22013KT 27/18 A3003 RMK A01 T02690176  RH  057%=      5-min Rain = 0
KWE2 251547Z 22009KT 27/18 A3003 RMK A01 T02690176  RH  057%=      5-min Rain = 0
KWE2 251548Z 22013KT 27/18 A3003 RMK A01 T02700176  RH  056%=      5-min Rain = 0
KWE2 251549Z 21012KT 27/17 A3003 RMK A01 T02730174  RH  054%=      5-min Rain = 0
KWE2 251550Z 22012KT 27/17 A3003 RMK A01 T02740174  RH  054%=      5-min Rain = 0
KWE2 251551Z 22011KT 27/17 A3003 RMK A01 T02710174  RH  055%=      5-min Rain = 0
KWE2 251552Z 22013KT 27/18 A3003 RMK A01 T02720176  RH  056%=      5-min Rain = 0
KWE2 251553Z 24012KT 27/17 A3003 RMK A01 T02740174  RH  054%=      5-min Rain = 0
KWE2 251554Z 24011KT 28/17 A3003 RMK A01 T02760174  RH  054%=      5-min Rain = 0
KWE2 251555Z 25010KT 28/18 A3003 RMK A01 T02770175  RH  054%=      5-min Rain = 0
KWE2 251556Z 25009KT 28/18 A3003 RMK A01 T02780175  RH  053%=      5-min Rain = 0
KWE2 251557Z 22010KT 28/18 A3003 RMK A01 T02800176  RH  053%=      5-min Rain = 0
KWE2 251558Z 20011KT 28/18 A3003 RMK A01 T02810177  RH  053%=      5-min Rain = 0
KWE2 251559Z 20011KT 28/18 A3003 RMK A01 T02780176  RH  054%=      5-min Rain = 0
KWE2 251600Z 20012KT 28/18 A3003 RMK A01 T02780175  RH  054%=      5-min Rain = 0
KWE2 251601Z 20012KT 28/18 A3003 RMK A01 T02760176  RH  054%=      5-min Rain = 0
KWE2 251602Z 21011KT 28/18 A3003 RMK A01 T02760176  RH  054%=      5-min Rain = 0
KWE2 251603Z 23009KT 28/18 A3003 RMK A01 T02760176  RH  054%=      5-min Rain = 0
KWE2 251604Z 25008KT 28/17 A3003 RMK A01 T02750173  RH  054%=      5-min Rain = 0
KWE2 251605Z 24010KT 28/17 A3003 RMK A01 T02760174  RH  054%=      5-min Rain = 0
KWE2 251606Z 23008KT 28/17 A3003 RMK A01 T02770174  RH  054%=      5-min Rain = 0
KWE2 251607Z 20009KT 28/18 A3003 RMK A01 T02770176  RH  054%=      5-min Rain = 0
KWE2 251608Z 21007KT 28/18 A3003 RMK A01 T02780175  RH  054%=      5-min Rain = 0
KWE2 251609Z 20009KT 28/18 A3003 RMK A01 T02760176  RH  054%=      5-min Rain = 0
KWE2 251610Z 20010KT 28/18 A3003 RMK A01 T02760175  RH  054%=      5-min Rain = 0
KWE2 251611Z 21009KT 28/18 A3003 RMK A01 T02750177  RH  055%=      5-min Rain = 0
KWE2 251612Z 21007KT 28/18 A3003 RMK A01 T02770178  RH  055%=      5-min Rain = 0
KWE2 251613Z 22006KT 28/18 A3003 RMK A01 T02800177  RH  053%=      5-min Rain = 0
KWE2 251614Z 24006KT 28/18 A3003 RMK A01 T02800176  RH  053%=      5-min Rain = 0
KWE2 251615Z 22009KT 28/17 A3003 RMK A01 T02800171  RH  052%=      5-min Rain = 0
KWE2 251616Z 22008KT 28/17 A3003 RMK A01 T02800171  RH  052%=      5-min Rain = 0
KWE2 251617Z 21010KT 28/17 A3003 RMK A01 T02810174  RH  052%=      5-min Rain = 0
KWE2 251618Z 20007KT 28/18 A3003 RMK A01 T02820175  RH  052%=      5-min Rain = 0
KWE2 251619Z 21009KT 28/18 A3003 RMK A01 T02820175  RH  052%=      5-min Rain = 0
KWE2 251620Z 23007KT 28/17 A3003 RMK A01 T02830173  RH  051%=      5-min Rain = 0
KWE2 251621Z 21007KT 28/17 A3003 RMK A01 T02830174  RH  052%=      5-min Rain = 0
KWE2 251622Z 20008KT 28/18 A3003 RMK A01 T02840175  RH  052%=      5-min Rain = 0
KWE2 251623Z 19008KT 29/18 A3003 RMK A01 T02870177  RH  051%=      5-min Rain = 0
KWE2 251624Z 20007KT 29/18 A3003 RMK A01 T02860175  RH  051%=      5-min Rain = 0
KWE2 251625Z 19010KT 28/18 A3003 RMK A01 T02830176  RH  052%=      5-min Rain = 0
KWE2 251626Z 18008KT 28/18 A3003 RMK A01 T02820176  RH  053%=      5-min Rain = 0
KWE2 251627Z 18008KT 28/18 A3003 RMK A01 T02840177  RH  052%=      5-min Rain = 0
KWE2 251628Z 20009KT 29/18 A3003 RMK A01 T02860177  RH  052%=      5-min Rain = 0
KWE2 251629Z 20008KT 29/18 A3003 RMK A01 T02860176  RH  051%=      5-min Rain = 0
KWE2 251630Z 20006KT 29/18 A3003 RMK A01 T02850176  RH  052%=      5-min Rain = 0
KWE2 251631Z 19010KT 29/18 A3003 RMK A01 T02850175  RH  051%=      5-min Rain = 0
KWE2 251632Z 19008KT 29/18 A3003 RMK A01 T02850176  RH  052%=      5-min Rain = 0
KWE2 251633Z 19009KT 29/18 A3003 RMK A01 T02860178  RH  052%=      5-min Rain = 0
KWE2 251634Z 19007KT 29/18 A3003 RMK A01 T02870178  RH  052%=      5-min Rain = 0
KWE2 251635Z 19007KT 29/18 A3003 RMK A01 T02890178  RH  051%=      5-min Rain = 0
KWE2 251636Z 19007KT 29/18 A3003 RMK A01 T02890178  RH  051%=      5-min Rain = 0
KWE2 251637Z 19007KT 29/18 A3003 RMK A01 T02880178  RH  051%=      5-min Rain = 0
KWE2 251638Z 20004KT 29/18 A3003 RMK A01 T02860179  RH  052%=      5-min Rain = 0
KWE2 251639Z 19006KT 29/18 A3003 RMK A01 T02860178  RH  052%=      5-min Rain = 0
KWE2 251640Z 18007KT 29/18 A3003 RMK A01 T02870179  RH  052%=      5-min Rain = 0
KWE2 251641Z 17011KT 29/18 A3003 RMK A01 T02870179  RH  052%=      5-min Rain = 0
KWE2 251642Z 18010KT 29/18 A3003 RMK A01 T02880178  RH  051%=      5-min Rain = 0
KWE2 251643Z 17006KT 29/18 A3003 RMK A01 T02890178  RH  051%=      5-min Rain = 0
KWE2 251644Z 17008KT 29/18 A3003 RMK A01 T02880179  RH  052%=      5-min Rain = 0
KWE2 251645Z 17010KT 29/18 A3003 RMK A01 T02880178  RH  052%=      5-min Rain = 0
KWE2 251646Z 19007KT 29/18 A3003 RMK A01 T02900179  RH  051%=      5-min Rain = 0
KWE2 251647Z 17007KT 29/18 A3003 RMK A01 T02910178  RH  050%=      5-min Rain = 0
KWE2 251648Z 18009KT 29/18 A3003 RMK A01 T02920180  RH  051%=      5-min Rain = 0
KWE2 251649Z 17007KT 29/18 A3003 RMK A01 T02930178  RH  050%=      5-min Rain = 0
KWE2 251650Z 17008KT 29/18 A3003 RMK A01 T02940179  RH  050%=      5-min Rain = 0
KWE2 251651Z 16008KT 29/18 A3003 RMK A01 T02940178  RH  050%=      5-min Rain = 0
KWE2 251652Z 20008G14KT 29/18 A3003 RMK A01 T02930177  RH  050%=      5-min Rain = 0
KWE2 251653Z 19005KT 29/18 A3003 RMK A01 T02920178  RH  050%=      5-min Rain = 0
KWE2 251654Z 22008KT 29/18 A3003 RMK A01 T02910177  RH  050%=      5-min Rain = 0
KWE2 251655Z 22008KT 29/18 A3003 RMK A01 T02910175  RH  050%=      5-min Rain = 0
KWE2 251656Z 19008KT 29/18 A3003 RMK A01 T02910176  RH  050%=      5-min Rain = 0
KWE2 251657Z 19007KT 29/18 A3003 RMK A01 T02910176  RH  050%=      5-min Rain = 0
KWE2 251658Z 19011KT 29/18 A3003 RMK A01 T02920178  RH  050%=      5-min Rain = 0
KWE2 251659Z 19009KT 30/18 A3003 RMK A01 T02950176  RH  049%=      5-min Rain = 0
KWE2 251700Z 20007KT 29/18 A3003 RMK A01 T02940175  RH  049%=      5-min Rain = 0
KWE2 251701Z 20008KT 29/17 A3003 RMK A01 T02920174  RH  049%=      5-min Rain = 0
KWE2 251702Z 19008KT 29/17 A3003 RMK A01 T02920174  RH  049%=      5-min Rain = 0
KWE2 251703Z 18007KT 29/17 A3003 RMK A01 T02930173  RH  048%=      5-min Rain = 0
KWE2 251704Z 19009KT 29/18 A3003 RMK A01 T02930175  RH  049%=      5-min Rain = 0
KWE2 251705Z 19008KT 29/18 A3003 RMK A01 T02940175  RH  049%=      5-min Rain = 0
KWE2 251706Z 20007KT 30/17 A3003 RMK A01 T02950173  RH  048%=      5-min Rain = 0
KWE2 251707Z 20009KT 30/17 A3003 RMK A01 T02960174  RH  048%=      5-min Rain = 0
KWE2 251708Z 19009KT 30/17 A3003 RMK A01 T02970171  RH  046%=      5-min Rain = 0
KWE2 251709Z 17008KT 30/17 A3003 RMK A01 T02950171  RH  047%=      5-min Rain = 0
KWE2 251710Z 19009KT 30/17 A3003 RMK A01 T02960174  RH  048%=      5-min Rain = 0
KWE2 251711Z 20009KT 30/17 A3003 RMK A01 T03020173  RH  046%=      5-min Rain = 0
KWE2 251712Z 20007KT 30/17 A3003 RMK A01 T03020173  RH  046%=      5-min Rain = 0
KWE2 251713Z 20010KT 30/17 A3003 RMK A01 T03020172  RH  046%=      5-min Rain = 0
KWE2 251714Z 20009KT 30/17 A3003 RMK A01 T03020169  RH  045%=      5-min Rain = 0
KWE2 251715Z 19009KT 30/17 A3003 RMK A01 T03010172  RH  046%=      5-min Rain = 0
KWE2 251716Z 19011KT 30/17 A3003 RMK A01 T03010172  RH  046%=      5-min Rain = 0
KWE2 251717Z 21007KT 30/17 A3003 RMK A01 T02990172  RH  046%=      5-min Rain = 0
KWE2 251718Z 19006KT 30/17 A3003 RMK A01 T02990173  RH  047%=      5-min Rain = 0
KWE2 251719Z 20008KT 30/17 A3003 RMK A01 T02990173  RH  047%=      5-min Rain = 0
KWE2 251720Z 21009KT 30/17 A3003 RMK A01 T03020168  RH  045%=      5-min Rain = 0
KWE2 251721Z 21007KT 30/17 A3003 RMK A01 T03020169  RH  045%=      5-min Rain = 0
KWE2 251722Z 18005KT 30/17 A3003 RMK A01 T03000171  RH  046%=      5-min Rain = 0
KWE2 251723Z 21004KT 30/17 A3002 RMK A01 T03020173  RH  046%=      5-min Rain = 0
KWE2 251724Z 19007KT 30/17 A3002 RMK A01 T03030170  RH  045%=      5-min Rain = 0
KWE2 251725Z 19006KT 30/17 A3002 RMK A01 T03010173  RH  046%=      5-min Rain = 0
KWE2 251726Z 16006KT 30/18 A3002 RMK A01 T03010177  RH  047%=      5-min Rain = 0
KWE2 251727Z 18007KT 30/18 A3002 RMK A01 T03030175  RH  046%=      5-min Rain = 0
KWE2 251728Z 19007KT 31/17 A3002 RMK A01 T03050167  RH  043%=      5-min Rain = 0
KWE2 251729Z 19007KT 30/17 A3002 RMK A01 T03040172  RH  045%=      5-min Rain = 0
KWE2 251730Z 19006KT 30/17 A3002 RMK A01 T03040171  RH  045%=      5-min Rain = 0
KWE2 251731Z 19004KT 30/17 A3002 RMK A01 T03040172  RH  045%=      5-min Rain = 0
KWE2 251732Z 19006KT 30/18 A3002 RMK A01 T03040176  RH  046%=      5-min Rain = 0
KWE2 251733Z 17008KT 31/18 A3002 RMK A01 T03070178  RH  046%=      5-min Rain = 0
KWE2 251734Z 15006KT 31/18 A3002 RMK A01 T03070176  RH  045%=      5-min Rain = 0
KWE2 251735Z 15007KT 31/18 A3002 RMK A01 T03060176  RH  046%=      5-min Rain = 0
KWE2 251736Z 16006KT 31/17 A3002 RMK A01 T03070174  RH  045%=      5-min Rain = 0
KWE2 251737Z 19007KT 31/17 A3002 RMK A01 T03070171  RH  044%=      5-min Rain = 0
KWE2 251738Z 19007KT 31/17 A3002 RMK A01 T03090165  RH  042%=      5-min Rain = 0
KWE2 251739Z 21007KT 31/17 A3002 RMK A01 T03100167  RH  042%=      5-min Rain = 0
KWE2 251740Z 20006G11KT 31/17 A3002 RMK A01 T03100168  RH  042%=      5-min Rain = 0
KWE2 251741Z 22008KT 31/17 A3002 RMK A01 T03090171  RH  044%=      5-min Rain = 0
KWE2 251742Z 22006KT 31/17 A3002 RMK A01 T03100166  RH  042%=      5-min Rain = 0
KWE2 251743Z 22005KT 31/17 A3002 RMK A01 T03100169  RH  043%=      5-min Rain = 0
KWE2 251744Z 22006KT 31/17 A3002 RMK A01 T03100169  RH  043%=      5-min Rain = 0
KWE2 251745Z 20008KT 31/16 A3002 RMK A01 T03110163  RH  041%=      5-min Rain = 0
KWE2 251746Z 19009KT 31/16 A3002 RMK A01 T03130159  RH  040%=      5-min Rain = 0
KWE2 251747Z 17007KT 31/16 A3002 RMK A01 T03100162  RH  041%=      5-min Rain = 0
KWE2 251748Z 18007KT 31/17 A3002 RMK A01 T03110167  RH  042%=      5-min Rain = 0
KWE2 251749Z 19009KT 32/17 A3002 RMK A01 T03150166  RH  041%=      5-min Rain = 0
KWE2 251750Z 20007KT 31/17 A3002 RMK A01 T03140165  RH  041%=      5-min Rain = 0
KWE2 251751Z 19007KT 31/17 A3002 RMK A01 T03110168  RH  042%=      5-min Rain = 0
KWE2 251752Z 21009KT 31/17 A3002 RMK A01 T03140167  RH  042%=      5-min Rain = 0
KWE2 251753Z 23005KT 32/17 A3002 RMK A01 T03150166  RH  041%=      5-min Rain = 0
KWE2 251754Z 20006KT 31/17 A3002 RMK A01 T03140167  RH  041%=      5-min Rain = 0
KWE2 251755Z 18003KT 31/17 A3002 RMK A01 T03140167  RH  041%=      5-min Rain = 0
KWE2 251756Z 18008KT 32/17 A3002 RMK A01 T03150170  RH  042%=      5-min Rain = 0
KWE2 251757Z 18007KT 32/17 A3002 RMK A01 T03160165  RH  040%=      5-min Rain = 0
KWE2 251758Z 19008KT 32/17 A3002 RMK A01 T03160165  RH  040%=      5-min Rain = 0
KWE2 251759Z 19010KT 32/17 A3002 RMK A01 T03160166  RH  041%=      5-min Rain = 0
KWE2 251800Z 18010KT 32/16 A3002 RMK A01 T03170160  RH  039%=      5-min Rain = 0
KWE2 251801Z 18009KT 32/16 A3002 RMK A01 T03180158  RH  038%=      5-min Rain = 0
KWE2 251802Z 18008KT 32/16 A3002 RMK A01 T03200159  RH  038%=      5-min Rain = 0
KWE2 251803Z 19007KT 32/16 A3002 RMK A01 T03190164  RH  039%=      5-min Rain = 0
KWE2 251804Z 19008KT 32/17 A3002 RMK A01 T03180166  RH  040%=      5-min Rain = 0
KWE2 251805Z 18007KT 32/17 A3002 RMK A01 T03180167  RH  040%=      5-min Rain = 0
KWE2 251806Z 16006KT 32/17 A3002 RMK A01 T03180166  RH  040%=      5-min Rain = 0
KWE2 251807Z 20004KT 32/17 A3002 RMK A01 T03170168  RH  041%=      5-min Rain = 0
KWE2 251808Z 17007KT 32/17 A3002 RMK A01 T03160169  RH  041%=      5-min Rain = 0
KWE2 251809Z 16008KT 32/17 A3002 RMK A01 T03180169  RH  041%=      5-min Rain = 0
KWE2 251810Z 14007KT 32/17 A3002 RMK A01 T03200169  RH  041%=      5-min Rain = 0
KWE2 251811Z 13006KT 32/17 A3002 RMK A01 T03200170  RH  041%=      5-min Rain = 0
KWE2 251812Z 15007KT 32/17 A3002 RMK A01 T03210173  RH  041%=      5-min Rain = 0
KWE2 251813Z 17007KT 32/17 A3002 RMK A01 T03230166  RH  039%=      5-min Rain = 0
KWE2 251814Z 17008KT 32/17 A3002 RMK A01 T03240169  RH  040%=      5-min Rain = 0
KWE2 251815Z 18007KT 32/16 A3002 RMK A01 T03230164  RH  039%=      5-min Rain = 0
KWE2 251816Z 18006KT 32/16 A3002 RMK A01 T03200162  RH  039%=      5-min Rain = 0
KWE2 251817Z 18007KT 32/16 A3002 RMK A01 T03200160  RH  038%=      5-min Rain = 0
KWE2 251818Z 18008KT 32/16 A3002 RMK A01 T03190163  RH  039%=      5-min Rain = 0
KWE2 251819Z 18009KT 32/16 A3002 RMK A01 T03230159  RH  037%=      5-min Rain = 0
KWE2 251820Z 19008KT 32/16 A3002 RMK A01 T03220164  RH  039%=      5-min Rain = 0
KWE2 251821Z 18007KT 32/16 A3002 RMK A01 T03210162  RH  038%=      5-min Rain = 0
KWE2 251822Z 18008KT 32/17 A3002 RMK A01 T03230165  RH  039%=      5-min Rain = 0
KWE2 251823Z 18008KT 32/17 A3002 RMK A01 T03230166  RH  039%=      5-min Rain = 0
KWE2 251824Z 16006KT 32/17 A3002 RMK A01 T03210167  RH  040%=      5-min Rain = 0
KWE2 251825Z 17003KT 32/17 A3002 RMK A01 T03190168  RH  040%=      5-min Rain = 0
KWE2 251826Z 14001KT 32/16 A3001 RMK A01 T03200164  RH  039%=      5-min Rain = 0
KWE2 251827Z 15004KT 32/17 A3001 RMK A01 T03200165  RH  040%=      5-min Rain = 0
KWE2 251828Z 19005KT 32/17 A3001 RMK A01 T03210169  RH  040%=      5-min Rain = 0
KWE2 251829Z 22008KT 32/16 A3001 RMK A01 T03220159  RH  037%=      5-min Rain = 0
KWE2 251830Z 22005KT 32/16 A3001 RMK A01 T03220158  RH  037%=      5-min Rain = 0
KWE2 251831Z 15008KT 33/16 A3001 RMK A01 T03260163  RH  038%=      5-min Rain = 0
KWE2 251832Z 16006KT 33/17 A3001 RMK A01 T03320166  RH  037%=      5-min Rain = 0
KWE2 251833Z 17005KT 33/17 A3001 RMK A01 T03330167  RH  037%=      5-min Rain = 0
KWE2 251834Z 18005KT 33/17 A3001 RMK A01 T03320168  RH  038%=      5-min Rain = 0
KWE2 251835Z 18005KT 33/17 A3001 RMK A01 T03320166  RH  037%=      5-min Rain = 0
KWE2 251836Z 16007KT 33/17 A3001 RMK A01 T03310166  RH  037%=      5-min Rain = 0
KWE2 251837Z 20007KT 33/16 A3001 RMK A01 T03340156  RH  034%=      5-min Rain = 0
KWE2 251838Z 19005KT 33/16 A3001 RMK A01 T03290159  RH  036%=      5-min Rain = 0
KWE2 251839Z 14005KT 33/16 A3001 RMK A01 T03260157  RH  036%=      5-min Rain = 0
KWE2 251840Z 15009KT 33/16 A3001 RMK A01 T03250155  RH  036%=      5-min Rain = 0
KWE2 251841Z 15008KT 33/16 A3001 RMK A01 T03290159  RH  036%=      5-min Rain = 0
KWE2 251842Z 15007KT 33/16 A3001 RMK A01 T03330158  RH  035%=      5-min Rain = 0
KWE2 251843Z 15008KT 33/15 A3001 RMK A01 T03330152  RH  034%=      5-min Rain = 0
KWE2 251844Z 13007KT 33/15 A3001 RMK A01 T03340152  RH  034%=      5-min Rain = 0
KWE2 251845Z 15010KT 34/16 A3001 RMK A01 T03350157  RH  034%=      5-min Rain = 0
KWE2 251846Z 18008KT 34/16 A3001 RMK A01 T03400155  RH  033%=      5-min Rain = 0
KWE2 251847Z 18009KT 34/15 A3001 RMK A01 T03390151  RH  032%=      5-min Rain = 0
KWE2 251848Z 18009KT 34/15 A3001 RMK A01 T03350145  RH  032%=      5-min Rain = 0
KWE2 251849Z 19007KT 33/14 A3001 RMK A01 T03340142  RH  031%=      5-min Rain = 0
KWE2 251850Z 19006KT 33/14 A3001 RMK A01 T03320143  RH  032%=      5-min Rain = 0
KWE2 251851Z 19005KT 33/15 A3001 RMK A01 T03310148  RH  033%=      5-min Rain = 0
KWE2 251852Z 17006KT 33/15 A3001 RMK A01 T03310150  RH  034%=      5-min Rain = 0
KWE2 251853Z 18006KT 33/15 A3001 RMK A01 T03330146  RH  032%=      5-min Rain = 0
KWE2 251854Z 18007KT 34/15 A3001 RMK A01 T03360147  RH  032%=      5-min Rain = 0
KWE2 251855Z 19007KT 34/14 A3001 RMK A01 T03380144  RH  031%=      5-min Rain = 0
KWE2 251856Z 20008KT 34/14 A3001 RMK A01 T03380140  RH  030%=      5-min Rain = 0
KWE2 251857Z 18007KT 34/14 A3001 RMK A01 T03350142  RH  031%=      5-min Rain = 0
KWE2 251858Z 18010KT 34/14 A3001 RMK A01 T03350140  RH  031%=      5-min Rain = 0
KWE2 251859Z 18008KT 34/14 A3001 RMK A01 T03400137  RH  029%=      5-min Rain = 0
KWE2 251900Z 17005KT 34/13 A3001 RMK A01 T03400132  RH  029%=      5-min Rain = 0
KWE2 251901Z 14004KT 34/13 A3001 RMK A01 T03400133  RH  029%=      5-min Rain = 0
KWE2 251902Z 15005KT 34/13 A3001 RMK A01 T03420133  RH  028%=      5-min Rain = 0
KWE2 251903Z 18008KT 35/13 A3001 RMK A01 T03470134  RH  028%=      5-min Rain = 0
KWE2 251904Z 19007KT 35/12 A3001 RMK A01 T03480121  RH  025%=      5-min Rain = 0
KWE2 251905Z 17011KT 35/13 A3001 RMK A01 T03470130  RH  027%=      5-min Rain = 0
KWE2 251906Z 19012KT 35/13 A3001 RMK A01 T03470127  RH  027%=      5-min Rain = 0
KWE2 251907Z 18011KT 35/13 A3001 RMK A01 T03450128  RH  027%=      5-min Rain = 0
KWE2 251908Z 17010KT 34/12 A3001 RMK A01 T03440123  RH  026%=      5-min Rain = 0
KWE2 251909Z 17011KT 34/12 A3001 RMK A01 T03410119  RH  026%=      5-min Rain = 0
KWE2 251910Z 16010KT 34/12 A3001 RMK A01 T03400116  RH  026%=      5-min Rain = 0
KWE2 251911Z 16011KT 34/12 A3001 RMK A01 T03430121  RH  026%=      5-min Rain = 0
KWE2 251912Z 17007KT 34/12 A3001 RMK A01 T03430124  RH  026%=      5-min Rain = 0
KWE2 251913Z 18007KT 34/13 A30 RMK A01 T03440125  RH  027%=      5-min Rain = 0
KWE2 251914Z 17008KT 34/13 A30 RMK A01 T03440126  RH  027%=      5-min Rain = 0
KWE2 251915Z 19006KT 34/12 A30 RMK A01 T03430122  RH  026%=      5-min Rain = 0
KWE2 251916Z 18006KT 34/12 A30 RMK A01 T03410117  RH  026%=      5-min Rain = 0
KWE2 251917Z 15008KT 34/12 A30 RMK A01 T03400120  RH  026%=      5-min Rain = 0
KWE2 251918Z 14011KT 34/12 A30 RMK A01 T03440118  RH  025%=      5-min Rain = 0
KWE2 251919Z 15009KT 35/12 A30 RMK A01 T03470124  RH  026%=      5-min Rain = 0
KWE2 251920Z 14007KT 35/13 A30 RMK A01 T03480126  RH  026%=      5-min Rain = 0
KWE2 251921Z 14006KT 35/13 A30 RMK A01 T03490125  RH  026%=      5-min Rain = 0
KWE2 251922Z 18007KT 35/13 A30 RMK A01 T03480125  RH  026%=      5-min Rain = 0
KWE2 251923Z 16008G13KT 35/13 A30 RMK A01 T03480127  RH  026%=      5-min Rain = 0
KWE2 251924Z 15007G12KT 35/12 A30 RMK A01 T03470124  RH  026%=      5-min Rain = 0
KWE2 251925Z 14006G11KT 34/12 A30 RMK A01 T03440122  RH  026%=      5-min Rain = 0
KWE2 251926Z 12005KT 34/12 A30 RMK A01 T03430122  RH  026%=      5-min Rain = 0
KWE2 251927Z 19005G14KT 34/13 A30 RMK A01 T03430125  RH  027%=      5-min Rain = 0
KWE2 251928Z 21013KT 35/12 A30 RMK A01 T03470121  RH  026%=      5-min Rain = 0
KWE2 251929Z 19012KT 35/12 A30 RMK A01 T03480121  RH  025%=      5-min Rain = 0
KWE2 251930Z 18012KT 35/12 A30 RMK A01 T03480121  RH  025%=      5-min Rain = 0
KWE2 251931Z 18007KT 35/12 A30 RMK A01 T03460122  RH  026%=      5-min Rain = 0
KWE2 251932Z 15007KT 35/12 A30 RMK A01 T03450121  RH  026%=      5-min Rain = 0
KWE2 251933Z 15006KT 34/12 A30 RMK A01 T03440118  RH  025%=      5-min Rain = 0
KWE2 251934Z 17009KT 34/12 A30 RMK A01 T03440119  RH  026%=      5-min Rain = 0
KWE2 251935Z 15007KT 34/12 A30 RMK A01 T03430119  RH  026%=      5-min Rain = 0
KWE2 251936Z 15007KT 35/12 A30 RMK A01 T03450124  RH  026%=      5-min Rain = 0
KWE2 251937Z 16008KT 35/12 A2999 RMK A01 T03510123  RH  025%=      5-min Rain = 0
KWE2 251938Z 16006KT 35/12 A30 RMK A01 T03520122  RH  025%=      5-min Rain = 0
KWE2 251939Z 14010KT 35/12 A30 RMK A01 T03500122  RH  025%=      5-min Rain = 0
KWE2 251940Z 15011KT 35/12 A2999 RMK A01 T03500118  RH  025%=      5-min Rain = 0
KWE2 251941Z 16009KT 35/12 A2999 RMK A01 T03510120  RH  025%=      5-min Rain = 0
KWE2 251942Z 15014KT 35/14 A2999 RMK A01 T03530136  RH  027%=      5-min Rain = 0
KWE2 251943Z 16013KT 36/14 A2999 RMK A01 T03560137  RH  027%=      5-min Rain = 0
KWE2 251944Z 17012KT 36/14 A2999 RMK A01 T03570138  RH  027%=      5-min Rain = 0
KWE2 251945Z 17010KT 36/14 A2999 RMK A01 T03560136  RH  027%=      5-min Rain = 0
KWE2 251946Z 16007KT 35/13 A2999 RMK A01 T03510134  RH  027%=      5-min Rain = 0
KWE2 251947Z 16005KT 35/14 A2999 RMK A01 T03490136  RH  028%=      5-min Rain = 0
KWE2 251948Z 14011KT 35/14 A2999 RMK A01 T03510138  RH  028%=      5-min Rain = 0
KWE2 251949Z 13010KT 35/14 A2999 RMK A01 T03520138  RH  028%=      5-min Rain = 0
KWE2 251950Z 12010KT 35/14 A2999 RMK A01 T03520141  RH  028%=      5-min Rain = 0
KWE2 251951Z 11010KT 35/14 A2999 RMK A01 T03520141  RH  028%=      5-min Rain = 0
KWE2 251952Z 11007KT 35/14 A2999 RMK A01 T03500140  RH  028%=      5-min Rain = 0
KWE2 251953Z 13006KT 35/14 A2999 RMK A01 T03480140  RH  029%=      5-min Rain = 0
KWE2 251954Z 15013G19KT 35/14 A2999 RMK A01 T03490144  RH  029%=      5-min Rain = 0
KWE2 251955Z 15017KT 35/14 A2999 RMK A01 T03520140  RH  028%=      5-min Rain = 0
KWE2 251956Z 14018KT 35/14 A2999 RMK A01 T03540138  RH  027%=      5-min Rain = 0
KWE2 251957Z 15018KT 36/14 A2999 RMK A01 T03560137  RH  027%=      5-min Rain = 0
KWE2 251958Z 16015KT 36/14 A2999 RMK A01 T03550137  RH  027%=      5-min Rain = 0
KWE2 251959Z 15013KT 35/14 A2999 RMK A01 T03530137  RH  027%=      5-min Rain = 0
KWE2 252000Z 16011KT 35/14 A2999 RMK A01 T03520138  RH  028%=      5-min Rain = 0
KWE2 252001Z 15015KT 35/14 A2999 RMK A01 T03500141  RH  028%=      5-min Rain = 0
KWE2 252002Z 15016G22KT 35/14 A2999 RMK A01 T03520137  RH  027%=      5-min Rain = 0
KWE2 252003Z 15010KT 35/14 A2999 RMK A01 T03480136  RH  028%=      5-min Rain = 0
KWE2 252004Z 16010KT 35/14 A2999 RMK A01 T03460137  RH  029%=      5-min Rain = 0
KWE2 252005Z 16010KT 35/14 A2999 RMK A01 T03470139  RH  029%=      5-min Rain = 0
KWE2 252006Z 14010KT 35/14 A2999 RMK A01 T03510140  RH  028%=      5-min Rain = 0
KWE2 252007Z 14010KT 35/14 A2999 RMK A01 T03520140  RH  028%=      5-min Rain = 0
KWE2 252008Z 16015KT 35/14 A2999 RMK A01 T03510139  RH  028%=      5-min Rain = 0
KWE2 252009Z 17015KT 35/14 A2999 RMK A01 T03520135  RH  027%=      5-min Rain = 0
KWE2 252010Z 16015KT 35/14 A2999 RMK A01 T03530136  RH  027%=      5-min Rain = 0
KWE2 252011Z 16017KT 36/14 A2999 RMK A01 T03560136  RH  027%=      5-min Rain = 0
KWE2 252012Z 17015KT 36/13 A2999 RMK A01 T03560133  RH  026%=      5-min Rain = 0
KWE2 252013Z 17013KT 35/13 A2999 RMK A01 T03540131  RH  026%=      5-min Rain = 0
KWE2 252014Z 17011KT 35/13 A2999 RMK A01 T03510130  RH  026%=      5-min Rain = 0
KWE2 252015Z 16009KT 35/13 A2999 RMK A01 T03480130  RH  027%=      5-min Rain = 0
KWE2 252016Z 16007KT 35/13 A2999 RMK A01 T03460131  RH  027%=      5-min Rain = 0
KWE2 252017Z 16010KT 35/13 A2999 RMK A01 T03480134  RH  028%=      5-min Rain = 0
KWE2 252018Z 14013KT 35/14 A2999 RMK A01 T03500137  RH  028%=      5-min Rain = 0
KWE2 252019Z 14016KT 35/14 A2998 RMK A01 T03520140  RH  028%=      5-min Rain = 0
KWE2 252020Z 13014KT 35/14 A2999 RMK A01 T03510140  RH  028%=      5-min Rain = 0
KWE2 252021Z 14011KT 35/14 A2999 RMK A01 T03520138  RH  028%=      5-min Rain = 0
KWE2 252022Z 12010KT 35/14 A2998 RMK A01 T03500139  RH  028%=      5-min Rain = 0
KWE2 252023Z 14011KT 35/14 A2998 RMK A01 T03490141  RH  029%=      5-min Rain = 0
KWE2 252024Z 13009G14KT 35/15 A2998 RMK A01 T03520145  RH  029%=      5-min Rain = 0
KWE2 252025Z 15016G21KT 36/14 A2998 RMK A01 T03560140  RH  027%=      5-min Rain = 0
KWE2 252026Z 17014KT 36/13 A2998 RMK A01 T03580132  RH  026%=      5-min Rain = 0
KWE2 252027Z 18012KT 36/13 A2998 RMK A01 T03550129  RH  026%=      5-min Rain = 0
KWE2 252028Z 17011KT 35/13 A2998 RMK A01 T03510130  RH  027%=      5-min Rain = 0
KWE2 252029Z 16017KT 35/14 A2998 RMK A01 T03540138  RH  027%=      5-min Rain = 0
KWE2 252030Z 15017KT 36/14 A2998 RMK A01 T03560136  RH  027%=      5-min Rain = 0
KWE2 252031Z 15017G22KT 36/14 A2998 RMK A01 T03550136  RH  027%=      5-min Rain = 0
KWE2 252032Z 15017KT 36/14 A2998 RMK A01 T03570137  RH  027%=      5-min Rain = 0
KWE2 252033Z 16012G18KT 36/14 A2998 RMK A01 T03590135  RH  026%=      5-min Rain = 0
KWE2 252034Z 17010KT 36/14 A2998 RMK A01 T03570137  RH  027%=      5-min Rain = 0
KWE2 252035Z 15014G19KT 35/14 A2998 RMK A01 T03530137  RH  027%=      5-min Rain = 0
KWE2 252036Z 17018KT 35/14 A2998 RMK A01 T03540135  RH  027%=      5-min Rain = 0
KWE2 252037Z 15014KT 36/13 A2998 RMK A01 T03550133  RH  026%=      5-min Rain = 0
KWE2 252038Z 16014KT 35/14 A2998 RMK A01 T03540135  RH  027%=      5-min Rain = 0
KWE2 252039Z 17014KT 36/14 A2998 RMK A01 T03580136  RH  027%=      5-min Rain = 0
KWE2 252040Z 17014KT 36/14 A2998 RMK A01 T03570135  RH  026%=      5-min Rain = 0
KWE2 252041Z 16013KT 35/13 A2998 RMK A01 T03540134  RH  027%=      5-min Rain = 0
KWE2 252042Z 15011G17KT 35/14 A2998 RMK A01 T03520137  RH  028%=      5-min Rain = 0
KWE2 252043Z 14013KT 35/14 A2998 RMK A01 T03520135  RH  027%=      5-min Rain = 0
KWE2 252044Z 14016KT 35/14 A2998 RMK A01 T03540138  RH  027%=      5-min Rain = 0
KWE2 252045Z 15014KT 36/13 A2998 RMK A01 T03560132  RH  026%=      5-min Rain = 0
KWE2 252046Z 15011KT 35/13 A2998 RMK A01 T03540133  RH  027%=      5-min Rain = 0
KWE2 252047Z 14017KT 35/14 A2998 RMK A01 T03540137  RH  027%=      5-min Rain = 0
KWE2 252048Z 13013KT 36/14 A2998 RMK A01 T03550135  RH  027%=      5-min Rain = 0
KWE2 252049Z 14012KT 36/13 A2998 RMK A01 T03570134  RH  026%=      5-min Rain = 0
KWE2 252050Z 15016KT 36/13 A2998 RMK A01 T03560132  RH  026%=      5-min Rain = 0
KWE2 252051Z 16015KT 36/13 A2998 RMK A01 T03570127  RH  025%=      5-min Rain = 0
KWE2 252052Z 16013KT 35/13 A2998 RMK A01 T03540125  RH  025%=      5-min Rain = 0
KWE2 252053Z 15013KT 35/13 A2998 RMK A01 T03510126  RH  026%=      5-min Rain = 0
KWE2 252054Z 14012KT 35/13 A2998 RMK A01 T03520126  RH  026%=      5-min Rain = 0
KWE2 252055Z 15014KT 35/12 A2998 RMK A01 T03520124  RH  025%=      5-min Rain = 0
KWE2 252056Z 15012KT 35/12 A2998 RMK A01 T03530122  RH  025%=      5-min Rain = 0
KWE2 252057Z 14012KT 35/13 A2998 RMK A01 T03520125  RH  025%=      5-min Rain = 0
KWE2 252058Z 14011KT 35/13 A2998 RMK A01 T03520128  RH  026%=      5-min Rain = 0
KWE2 252059Z 16017KT 36/13 A2997 RMK A01 T03550128  RH  026%=      5-min Rain = 0
KWE2 252100Z 16014KT 35/13 A2997 RMK A01 T03540129  RH  026%=      5-min Rain = 0
KWE2 252101Z 16018KT 36/13 A2997 RMK A01 T03550128  RH  026%=      5-min Rain = 0
KWE2 252102Z 16014KT 35/12 A2997 RMK A01 T03540124  RH  025%=      5-min Rain = 0
KWE2 252103Z 16015KT 35/13 A2997 RMK A01 T03520129  RH  026%=      5-min Rain = 0
KWE2 252104Z 15013KT 35/13 A2997 RMK A01 T03530127  RH  026%=      5-min Rain = 0
KWE2 252105Z 16011KT 35/13 A2997 RMK A01 T03530130  RH  026%=      5-min Rain = 0
KWE2 252106Z 15015KT 35/13 A2997 RMK A01 T03540131  RH  026%=      5-min Rain = 0
KWE2 252107Z 16016KT 36/13 A2997 RMK A01 T03560125  RH  025%=      5-min Rain = 0
KWE2 252108Z 14014KT 36/13 A2997 RMK A01 T03550125  RH  025%=      5-min Rain = 0
KWE2 252109Z 14017KT 36/13 A2997 RMK A01 T03550129  RH  026%=      5-min Rain = 0
KWE2 252110Z 14016KT 35/13 A2997 RMK A01 T03540129  RH  026%=      5-min Rain = 0
KWE2 252111Z 15015KT 36/13 A2997 RMK A01 T03550127  RH  025%=      5-min Rain = 0
KWE2 252112Z 15012KT 35/13 A2997 RMK A01 T03530126  RH  025%=      5-min Rain = 0
KWE2 252113Z 15012KT 35/13 A2997 RMK A01 T03530131  RH  026%=      5-min Rain = 0
KWE2 252114Z 16016KT 35/13 A2997 RMK A01 T03530130  RH  026%=      5-min Rain = 0
KWE2 252115Z 15015KT 35/13 A2997 RMK A01 T03530125  RH  025%=      5-min Rain = 0
KWE2 252116Z 14015KT 35/12 A2997 RMK A01 T03530124  RH  025%=      5-min Rain = 0
KWE2 252117Z 13014KT 35/12 A2997 RMK A01 T03540121  RH  024%=      5-min Rain = 0
KWE2 252118Z 13012KT 36/12 A2997 RMK A01 T03550121  RH  024%=      5-min Rain = 0
KWE2 252119Z 12014KT 35/13 A2997 RMK A01 T03540126  RH  025%=      5-min Rain = 0
KWE2 252120Z 13017KT 36/13 A2997 RMK A01 T03550126  RH  025%=      5-min Rain = 0
KWE2 252121Z 13017KT 35/12 A2997 RMK A01 T03540124  RH  025%=      5-min Rain = 0
KWE2 252122Z 13016KT 35/12 A2997 RMK A01 T03530122  RH  025%=      5-min Rain = 0
KWE2 252123Z 14014KT 35/12 A2997 RMK A01 T03520124  RH  025%=      5-min Rain = 0
KWE2 252124Z 16014KT 35/13 A2997 RMK A01 T03540125  RH  025%=      5-min Rain = 0
KWE2 252125Z 15017KT 36/12 A2997 RMK A01 T03590122  RH  024%=      5-min Rain = 0
KWE2 252126Z 16015KT 36/12 A2997 RMK A01 T03580119  RH  024%=      5-min Rain = 0
KWE2 252127Z 15014KT 36/12 A2997 RMK A01 T03570122  RH  024%=      5-min Rain = 0
KWE2 252128Z 15014KT 35/12 A2997 RMK A01 T03540121  RH  025%=      5-min Rain = 0
KWE2 252129Z 15017KT 35/12 A2996 RMK A01 T03540122  RH  025%=      5-min Rain = 0
KWE2 252130Z 15015KT 36/12 A2997 RMK A01 T03560117  RH  024%=      5-min Rain = 0
KWE2 252131Z 16013KT 36/12 A2997 RMK A01 T03570115  RH  023%=      5-min Rain = 0
KWE2 252132Z 15013KT 36/12 A2997 RMK A01 T03570117  RH  024%=      5-min Rain = 0
KWE2 252133Z 14013KT 36/11 A2997 RMK A01 T03600113  RH  022%=      5-min Rain = 0
KWE2 252134Z 14011G16KT 36/11 A2997 RMK A01 T03590109  RH  022%=      5-min Rain = 0
KWE2 252135Z 14015KT 36/11 A2996 RMK A01 T03570112  RH  023%=      5-min Rain = 0
KWE2 252136Z 14016KT 36/11 A2996 RMK A01 T03580113  RH  023%=      5-min Rain = 0
KWE2 252137Z 15014KT 36/11 A2997 RMK A01 T03610106  RH  021%=      5-min Rain = 0
KWE2 252138Z 14011KT 36/11 A2997 RMK A01 T03590107  RH  022%=      5-min Rain = 0
KWE2 252139Z 13011KT 36/11 A2996 RMK A01 T03570105  RH  022%=      5-min Rain = 0
KWE2 252140Z 12009KT 36/11 A2996 RMK A01 T03560105  RH  022%=      5-min Rain = 0
KWE2 252141Z 14009G14KT 35/11 A2996 RMK A01 T03530105  RH  022%=      5-min Rain = 0
KWE2 252142Z 13014G22KT 36/12 A2996 RMK A01 T03560117  RH  024%=      5-min Rain = 0
KWE2 252143Z 14014KT 36/12 A2996 RMK A01 T03590121  RH  024%=      5-min Rain = 0
KWE2 252144Z 14014KT 36/12 A2996 RMK A01 T03580122  RH  024%=      5-min Rain = 0
KWE2 252145Z 14015KT 36/12 A2996 RMK A01 T03580122  RH  024%=      5-min Rain = 0
KWE2 252146Z 14013KT 36/12 A2996 RMK A01 T03560123  RH  025%=      5-min Rain = 0
KWE2 252147Z 15017KT 36/12 A2996 RMK A01 T03580121  RH  024%=      5-min Rain = 0
KWE2 252148Z 15018KT 36/12 A2996 RMK A01 T03590117  RH  023%=      5-min Rain = 0
KWE2 252149Z 14017KT 36/12 A2996 RMK A01 T03570118  RH  024%=      5-min Rain = 0
KWE2 252150Z 13016KT 36/12 A2996 RMK A01 T03560118  RH  024%=      5-min Rain = 0
KWE2 252151Z 14014KT 36/12 A2996 RMK A01 T03570119  RH  024%=      5-min Rain = 0
KWE2 252152Z 16017KT 36/12 A2996 RMK A01 T03570116  RH  023%=      5-min Rain = 0
KWE2 252153Z 16014KT 36/11 A2996 RMK A01 T03550111  RH  023%=      5-min Rain = 0
KWE2 252154Z 15015KT 35/11 A2996 RMK A01 T03520113  RH  024%=      5-min Rain = 0
KWE2 252155Z 16013KT 35/11 A2996 RMK A01 T03540114  RH  024%=      5-min Rain = 0
KWE2 252156Z 15014KT 36/12 A2996 RMK A01 T03570118  RH  024%=      5-min Rain = 0
KWE2 252157Z 14013KT 36/12 A2996 RMK A01 T03590117  RH  023%=      5-min Rain = 0
KWE2 252158Z 15014KT 36/12 A2996 RMK A01 T03560118  RH  024%=      5-min Rain = 0
KWE2 252159Z 15012KT 36/12 A2996 RMK A01 T03550119  RH  024%=      5-min Rain = 0
KWE2 252200Z 14013KT 36/12 A2996 RMK A01 T03550119  RH  024%=      5-min Rain = 0
KWE2 252201Z 14014G20KT 35/12 A2996 RMK A01 T03540117  RH  024%=      5-min Rain = 0
KWE2 252202Z 13018KT 36/12 A2996 RMK A01 T03560116  RH  023%=      5-min Rain = 0
KWE2 252203Z 14018KT 36/12 A2996 RMK A01 T03570116  RH  023%=      5-min Rain = 0
KWE2 252204Z 14015KT 36/12 A2996 RMK A01 T03550115  RH  023%=      5-min Rain = 0
KWE2 252205Z 13017KT 35/11 A2996 RMK A01 T03540112  RH  023%=      5-min Rain = 0
KWE2 252206Z 13014KT 35/11 A2996 RMK A01 T03520111  RH  023%=      5-min Rain = 0
KWE2 252207Z 13016KT 35/11 A2996 RMK A01 T03520113  RH  024%=      5-min Rain = 0
KWE2 252208Z 12013KT 35/11 A2996 RMK A01 T03540109  RH  023%=      5-min Rain = 0
KWE2 252209Z 14011KT 36/11 A2996 RMK A01 T03550114  RH  023%=      5-min Rain = 0
KWE2 252210Z 15010KT 36/12 A2996 RMK A01 T03570117  RH  023%=      5-min Rain = 0
KWE2 252211Z 15011KT 36/12 A2996 RMK A01 T03590115  RH  023%=      5-min Rain = 0
KWE2 252212Z 15013KT 36/11 A2996 RMK A01 T03610108  RH  022%=      5-min Rain = 0
KWE2 252213Z 14014KT 36/11 A2996 RMK A01 T03590111  RH  022%=      5-min Rain = 0
KWE2 252214Z 14014KT 36/11 A2996 RMK A01 T03570114  RH  023%=      5-min Rain = 0
KWE2 252215Z 13017KT 36/11 A2995 RMK A01 T03580113  RH  023%=      5-min Rain = 0
KWE2 252216Z 15015KT 36/11 A2996 RMK A01 T03580113  RH  023%=      5-min Rain = 0
KWE2 252217Z 15015KT 36/12 A2996 RMK A01 T03580115  RH  023%=      5-min Rain = 0
KWE2 252218Z 16015KT 36/11 A2995 RMK A01 T03560114  RH  023%=      5-min Rain = 0
KWE2 252219Z 14016KT 36/12 A2995 RMK A01 T03550120  RH  024%=      5-min Rain = 0
KWE2 252220Z 13015KT 36/12 A2996 RMK A01 T03560116  RH  023%=      5-min Rain = 0
KWE2 252221Z 14014KT 36/12 A2995 RMK A01 T03570116  RH  023%=      5-min Rain = 0
KWE2 252222Z 15013KT 36/12 A2995 RMK A01 T03560116  RH  024%=      5-min Rain = 0
KWE2 252223Z 14014KT 36/11 A2995 RMK A01 T03560111  RH  023%=      5-min Rain = 0
KWE2 252224Z 14014KT 35/11 A2995 RMK A01 T03540112  RH  023%=      5-min Rain = 0
KWE2 252225Z 13012KT 35/11 A2995 RMK A01 T03540114  RH  023%=      5-min Rain = 0
KWE2 252226Z 14013KT 36/11 A2995 RMK A01 T03560114  RH  023%=      5-min Rain = 0
KWE2 252227Z 15015KT 36/11 A2995 RMK A01 T03580111  RH  022%=      5-min Rain = 0
KWE2 252228Z 15011KT 36/11 A2995 RMK A01 T03580108  RH  022%=      5-min Rain = 0
KWE2 252229Z 15014KT 36/11 A2995 RMK A01 T03590106  RH  022%=      5-min Rain = 0
KWE2 252230Z 14016KT 36/11 A2995 RMK A01 T03600108  RH  022%=      5-min Rain = 0
KWE2 252231Z 14015KT 36/11 A2995 RMK A01 T03590107  RH  022%=      5-min Rain = 0
KWE2 252232Z 14014KT 36/11 A2995 RMK A01 T03570109  RH  022%=      5-min Rain = 0
KWE2 252233Z 13015KT 36/11 A2995 RMK A01 T03570105  RH  022%=      5-min Rain = 0
KWE2 252234Z 12015KT 36/11 A2995 RMK A01 T03570106  RH  022%=      5-min Rain = 0
KWE2 252235Z 13014KT 36/10 A2995 RMK A01 T03570104  RH  022%=      5-min Rain = 0
KWE2 252236Z 13016KT 36/10 A2995 RMK A01 T03570101  RH  021%=      5-min Rain = 0
KWE2 252237Z 14016G21KT 36/10 A2995 RMK A01 T03560102  RH  021%=      5-min Rain = 0
KWE2 252238Z 13014KT 35/10 A2995 RMK A01 T03540098  RH  021%=      5-min Rain = 0
KWE2 252239Z 13013KT 35/10 A2995 RMK A01 T03540099  RH  021%=      5-min Rain = 0
KWE2 252240Z 14016KT 35/10 A2995 RMK A01 T03540104  RH  022%=      5-min Rain = 0
KWE2 252241Z 14018KT 35/11 A2995 RMK A01 T03540108  RH  022%=      5-min Rain = 0
KWE2 252242Z 14014KT 36/11 A2995 RMK A01 T03550108  RH  022%=      5-min Rain = 0
KWE2 252243Z 14012KT 35/11 A2995 RMK A01 T03540107  RH  022%=      5-min Rain = 0
KWE2 252244Z 14013KT 35/11 A2995 RMK A01 T03540108  RH  022%=      5-min Rain = 0
KWE2 252245Z 13012KT 36/11 A2995 RMK A01 T03550106  RH  022%=      5-min Rain = 0
KWE2 252246Z 14015KT 36/11 A2995 RMK A01 T03550106  RH  022%=      5-min Rain = 0
KWE2 252247Z 13016KT 36/11 A2995 RMK A01 T03560106  RH  022%=      5-min Rain = 0
KWE2 252248Z 13014KT 36/10 A2995 RMK A01 T03560103  RH  022%=      5-min Rain = 0
KWE2 252249Z 14015KT 36/10 A2995 RMK A01 T03550099  RH  021%=      5-min Rain = 0
KWE2 252250Z 14014KT 36/10 A2995 RMK A01 T03550098  RH  021%=      5-min Rain = 0
KWE2 252251Z 15017KT 35/11 A2995 RMK A01 T03540107  RH  022%=      5-min Rain = 0
KWE2 252252Z 14016KT 36/11 A2994 RMK A01 T03550105  RH  022%=      5-min Rain = 0
KWE2 252253Z 14018KT 35/11 A2995 RMK A01 T03540106  RH  022%=      5-min Rain = 0
KWE2 252254Z 14016KT 35/10 A2994 RMK A01 T03540104  RH  022%=      5-min Rain = 0
KWE2 252255Z 13016KT 35/10 A2994 RMK A01 T03530098  RH  021%=      5-min Rain = 0
KWE2 252256Z 14015KT 35/10 A2995 RMK A01 T03540097  RH  021%=      5-min Rain = 0
KWE2 252257Z 15014KT 35/11 A2994 RMK A01 T03540106  RH  022%=      5-min Rain = 0
KWE2 252258Z 16017KT 36/11 A2994 RMK A01 T03560108  RH  022%=      5-min Rain = 0
KWE2 252259Z 15015KT 36/11 A2994 RMK A01 T03560105  RH  022%=      5-min Rain = 0
KWE2 252300Z 15016KT 35/11 A2994 RMK A01 T03540107  RH  022%=      5-min Rain = 0
KWE2 252301Z 16016KT 35/11 A2994 RMK A01 T03540108  RH  023%=      5-min Rain = 0
KWE2 252302Z 16014G19KT 35/11 A2994 RMK A01 T03540110  RH  023%=      5-min Rain = 0
KWE2 252303Z 17015KT 36/11 A2994 RMK A01 T03560109  RH  022%=      5-min Rain = 0
KWE2 252304Z 16013G18KT 36/11 A2994 RMK A01 T03570113  RH  023%=      5-min Rain = 0
KWE2 252305Z 15013KT 35/12 A2994 RMK A01 T03540117  RH  024%=      5-min Rain = 0
KWE2 252306Z 14015KT 35/12 A2994 RMK A01 T03540121  RH  025%=      5-min Rain = 0
KWE2 252307Z 14017KT 36/13 A2994 RMK A01 T03550128  RH  026%=      5-min Rain = 0
KWE2 252308Z 15016KT 36/13 A2994 RMK A01 T03550133  RH  026%=      5-min Rain = 0
KWE2 252309Z 14020KT 35/13 A2994 RMK A01 T03540130  RH  026%=      5-min Rain = 0
KWE2 252310Z 15018G23KT 35/13 A2994 RMK A01 T03530129  RH  026%=      5-min Rain = 0
KWE2 252311Z 15017G22KT 35/13 A2994 RMK A01 T03500130  RH  027%=      5-min Rain = 0
KWE2 252312Z 15018KT 35/13 A2994 RMK A01 T03480130  RH  027%=      5-min Rain = 0
KWE2 252313Z 15016G22KT 35/13 A2994 RMK A01 T03470133  RH  028%=      5-min Rain = 0
KWE2 252314Z 14018KT 35/14 A2994 RMK A01 T03470136  RH  028%=      5-min Rain = 0
KWE2 252315Z 13018KT 35/14 A2994 RMK A01 T03470137  RH  028%=      5-min Rain = 0
KWE2 252316Z 13017KT 35/14 A2994 RMK A01 T03460137  RH  028%=      5-min Rain = 0
KWE2 252317Z 13017KT 35/14 A2994 RMK A01 T03470138  RH  028%=      5-min Rain = 0
KWE2 252318Z 13017KT 35/14 A2994 RMK A01 T03480140  RH  029%=      5-min Rain = 0
KWE2 252319Z 14020KT 35/14 A2994 RMK A01 T03480143  RH  029%=      5-min Rain = 0
KWE2 252320Z 14020KT 35/14 A2994 RMK A01 T03480141  RH  029%=      5-min Rain = 0
KWE2 252321Z 15020KT 35/14 A2994 RMK A01 T03470140  RH  029%=      5-min Rain = 0
KWE2 252322Z 14018G23KT 35/14 A2994 RMK A01 T03450143  RH  030%=      5-min Rain = 0
KWE2 252323Z 14020KT 35/14 A2994 RMK A01 T03450141  RH  029%=      5-min Rain = 0
KWE2 252324Z 15020KT 35/15 A2994 RMK A01 T03450147  RH  030%=      5-min Rain = 0
KWE2 252325Z 14021KT 35/15 A2994 RMK A01 T03450148  RH  031%=      5-min Rain = 0
KWE2 252326Z 14018KT 34/15 A2994 RMK A01 T03440148  RH  031%=      5-min Rain = 0
KWE2 252327Z 14017KT 34/15 A2994 RMK A01 T03440146  RH  031%=      5-min Rain = 0
KWE2 252328Z 14017KT 35/14 A2994 RMK A01 T03450143  RH  030%=      5-min Rain = 0
KWE2 252329Z 14016KT 35/15 A2994 RMK A01 T03450146  RH  030%=      5-min Rain = 0
KWE2 252330Z 15019KT 35/14 A2994 RMK A01 T03460144  RH  030%=      5-min Rain = 0
KWE2 252331Z 14019KT 34/14 A2994 RMK A01 T03440142  RH  030%=      5-min Rain = 0
KWE2 252332Z 14016KT 34/15 A2994 RMK A01 T03430146  RH  031%=      5-min Rain = 0
KWE2 252333Z 13018KT 34/15 A2994 RMK A01 T03440152  RH  032%=      5-min Rain = 0
KWE2 252334Z 13020KT 34/15 A2994 RMK A01 T03430154  RH  032%=      5-min Rain = 0
KWE2 252335Z 14020KT 34/16 A2993 RMK A01 T03410155  RH  033%=      5-min Rain = 0
KWE2 252336Z 13020KT 34/16 A2994 RMK A01 T03400156  RH  033%=      5-min Rain = 0
KWE2 252337Z 13019KT 34/16 A2994 RMK A01 T03410156  RH  033%=      5-min Rain = 0
KWE2 252338Z 14017KT 34/16 A2994 RMK A01 T03400157  RH  033%=      5-min Rain = 0
KWE2 252339Z 14019KT 34/16 A2993 RMK A01 T03400156  RH  033%=      5-min Rain = 0
KWE2 252340Z 14018KT 34/15 A2994 RMK A01 T03400154  RH  033%=      5-min Rain = 0
KWE2 252341Z 14019KT 34/15 A2994 RMK A01 T03400151  RH  032%=      5-min Rain = 0
KWE2 252342Z 14021KT 34/15 A2994 RMK A01 T03410148  RH  031%=      5-min Rain = 0
KWE2 252343Z 14017KT 34/15 A2994 RMK A01 T03410150  RH  032%=      5-min Rain = 0
KWE2 252344Z 14018KT 34/15 A2994 RMK A01 T03410150  RH  032%=      5-min Rain = 0
KWE2 252345Z 13016KT 34/15 A2994 RMK A01 T03400149  RH  032%=      5-min Rain = 0
KWE2 252346Z 14016KT 34/15 A2994 RMK A01 T03400146  RH  031%=      5-min Rain = 0
KWE2 252347Z 14017KT 34/15 A2993 RMK A01 T03410149  RH  032%=      5-min Rain = 0
KWE2 252348Z 14019KT 34/15 A2993 RMK A01 T03420148  RH  031%=      5-min Rain = 0
KWE2 252349Z 15019KT 34/15 A2993 RMK A01 T03410149  RH  032%=      5-min Rain = 0
KWE2 252350Z 14018KT 34/15 A2993 RMK A01 T03390151  RH  032%=      5-min Rain = 0
KWE2 252351Z 13020G25KT 34/15 A2993 RMK A01 T03390153  RH  033%=      5-min Rain = 0
KWE2 252352Z 13018KT 34/15 A2993 RMK A01 T03390153  RH  033%=      5-min Rain = 0
KWE2 252353Z 14016KT 34/16 A2993 RMK A01 T03380155  RH  033%=      5-min Rain = 0
KWE2 252354Z 14015KT 34/16 A2993 RMK A01 T03390156  RH  034%=      5-min Rain = 0
KWE2 252355Z 14017KT 34/16 A2993 RMK A01 T03380158  RH  034%=      5-min Rain = 0
KWE2 252356Z 14021G26KT 34/15 A2993 RMK A01 T03370154  RH  033%=      5-min Rain = 0
KWE2 252357Z 14021KT 34/15 A2993 RMK A01 T03360152  RH  033%=      5-min Rain = 0
KWE2 252358Z 13020G25KT 34/15 A2993 RMK A01 T03360150  RH  033%=      5-min Rain = 0
KWE2 252359Z 13019KT 34/15 A2993 RMK A01 T03350150  RH  033%=      5-min Rain = 0
KWE2 260000Z 14017KT 34/15 A2993 RMK A01 T03360150  RH  033%=      5-min Rain = 0
KWE2 260001Z 14017KT 34/15 A2993 RMK A01 T03360152  RH  033%=      5-min Rain = 0
KWE2 260002Z 14017KT 34/15 A2993 RMK A01 T03370149  RH  032%=      5-min Rain = 0
KWE2 260003Z 14018KT 34/15 A2993 RMK A01 T03370151  RH  033%=      5-min Rain = 0
KWE2 260004Z 14020KT 34/15 A2993 RMK A01 T03360149  RH  033%=      5-min Rain = 0
KWE2 260005Z 14019KT 34/15 A2993 RMK A01 T03360150  RH  033%=      5-min Rain = 0
KWE2 260006Z 13019G24KT 34/15 A2993 RMK A01 T03360152  RH  033%=      5-min Rain = 0
KWE2 260007Z 14020KT 34/15 A2993 RMK A01 T03350153  RH  034%=      5-min Rain = 0
KWE2 260008Z 13019KT 33/15 A2993 RMK A01 T03340154  RH  034%=      5-min Rain = 0
KWE2 260009Z 13021KT 33/15 A2993 RMK A01 T03340154  RH  034%=      5-min Rain = 0
KWE2 260010Z 14020KT 33/15 A2993 RMK A01 T03340154  RH  034%=      5-min Rain = 0
KWE2 260011Z 14019G24KT 33/16 A2993 RMK A01 T03330155  RH  034%=      5-min Rain = 0
KWE2 260012Z 15021KT 33/15 A2993 RMK A01 T03330149  RH  033%=      5-min Rain = 0
KWE2 260013Z 14018G23KT 33/15 A2993 RMK A01 T03330147  RH  033%=      5-min Rain = 0
KWE2 260014Z 14015KT 33/15 A2993 RMK A01 T03330151  RH  034%=      5-min Rain = 0
KWE2 260015Z 14018KT 33/15 A2993 RMK A01 T03340150  RH  033%=      5-min Rain = 0
KWE2 260016Z 13020KT 33/15 A2993 RMK A01 T03340146  RH  032%=      5-min Rain = 0
KWE2 260017Z 13019KT 33/15 A2993 RMK A01 T03340147  RH  033%=      5-min Rain = 0
KWE2 260018Z 13018KT 33/15 A2993 RMK A01 T03330147  RH  033%=      5-min Rain = 0
KWE2 260019Z 14019KT 33/15 A2993 RMK A01 T03330147  RH  033%=      5-min Rain = 0
KWE2 260020Z 14017KT 33/15 A2993 RMK A01 T03330147  RH  033%=      5-min Rain = 0
KWE2 260021Z 14016G22KT 33/15 A2993 RMK A01 T03330148  RH  033%=      5-min Rain = 0
KWE2 260022Z 13019KT 33/15 A2993 RMK A01 T03340149  RH  033%=      5-min Rain = 0
KWE2 260023Z 14016KT 33/15 A2993 RMK A01 T03330148  RH  033%=      5-min Rain = 0
KWE2 260024Z 14019KT 33/15 A2993 RMK A01 T03330148  RH  033%=      5-min Rain = 0
KWE2 260025Z 13016KT 33/15 A2993 RMK A01 T03320149  RH  033%=      5-min Rain = 0
KWE2 260026Z 13019KT 33/15 A2993 RMK A01 T03320150  RH  033%=      5-min Rain = 0
KWE2 260027Z 13020KT 33/15 A2993 RMK A01 T03320151  RH  034%=      5-min Rain = 0
KWE2 260028Z 14021KT 33/15 A2993 RMK A01 T03310150  RH  034%=      5-min Rain = 0
KWE2 260029Z 14021KT 33/15 A2993 RMK A01 T03310149  RH  033%=      5-min Rain = 0
KWE2 260030Z 13018KT 33/15 A2993 RMK A01 T03310148  RH  033%=      5-min Rain = 0
KWE2 260031Z 13017KT 33/15 A2993 RMK A01 T03310145  RH  033%=      5-min Rain = 0
KWE2 260032Z 13016KT 33/15 A2993 RMK A01 T03310146  RH  033%=      5-min Rain = 0
KWE2 260033Z 14017G22KT 33/14 A2993 RMK A01 T03320144  RH  032%=      5-min Rain = 0
KWE2 260034Z 14019KT 33/14 A2993 RMK A01 T03320142  RH  032%=      5-min Rain = 0
KWE2 260035Z 15020KT 33/14 A2993 RMK A01 T03320140  RH  031%=      5-min Rain = 0
KWE2 260036Z 14021KT 33/14 A2993 RMK A01 T03320137  RH  031%=      5-min Rain = 0
KWE2 260037Z 14017KT 33/14 A2993 RMK A01 T03310141  RH  032%=      5-min Rain = 0
KWE2 260038Z 14020KT 33/14 A2993 RMK A01 T03310142  RH  032%=      5-min Rain = 0
KWE2 260039Z 14018KT 33/14 A2993 RMK A01 T03300144  RH  033%=      5-min Rain = 0
KWE2 260040Z 15019KT 33/14 A2993 RMK A01 T03300137  RH  031%=      5-min Rain = 0
KWE2 260041Z 16019KT 33/13 A2993 RMK A01 T03300134  RH  031%=      5-min Rain = 0
KWE2 260042Z 15019KT 33/13 A2993 RMK A01 T03300132  RH  030%=      5-min Rain = 0
KWE2 260043Z 16016KT 33/13 A2993 RMK A01 T03300133  RH  030%=      5-min Rain = 0
KWE2 260044Z 16016KT 33/13 A2993 RMK A01 T03300133  RH  030%=      5-min Rain = 0
KWE2 260045Z 15015KT 33/14 A2993 RMK A01 T03300135  RH  031%=      5-min Rain = 0
KWE2 260046Z 15016KT 33/13 A2993 RMK A01 T03300133  RH  030%=      5-min Rain = 0
KWE2 260047Z 15018KT 33/13 A2993 RMK A01 T03290132  RH  030%=      5-min Rain = 0
KWE2 260048Z 15017KT 33/13 A2994 RMK A01 T03290131  RH  030%=      5-min Rain = 0
KWE2 260049Z 14018KT 33/14 A2994 RMK A01 T03290135  RH  031%=      5-min Rain = 0
KWE2 260050Z 14018KT 33/15 A2994 RMK A01 T03280145  RH  033%=      5-min Rain = 0
KWE2 260051Z 14016KT 33/15 A2994 RMK A01 T03270146  RH  034%=      5-min Rain = 0
KWE2 260052Z 15015G20KT 33/14 A2994 RMK A01 T03260144  RH  033%=      5-min Rain = 0
KWE2 260053Z 16016G21KT 33/14 A2994 RMK A01 T03260141  RH  033%=      5-min Rain = 0
KWE2 260054Z 16019KT 33/14 A2994 RMK A01 T03260135  RH  031%=      5-min Rain = 0
KWE2 260055Z 15020KT 33/14 A2994 RMK A01 T03260135  RH  031%=      5-min Rain = 0
KWE2 260056Z 15019KT 33/14 A2994 RMK A01 T03250135  RH  032%=      5-min Rain = 0
KWE2 260057Z 15019KT 33/14 A2994 RMK A01 T03250135  RH  032%=      5-min Rain = 0
KWE2 260058Z 15017KT 33/14 A2994 RMK A01 T03250136  RH  032%=      5-min Rain = 0
KWE2 260059Z 15019KT 32/14 A2994 RMK A01 T03240137  RH  032%=      5-min Rain = 0
KWE2 260100Z 15019KT 32/14 A2994 RMK A01 T03240135  RH  032%=      5-min Rain = 0
KWE2 260101Z 15017KT 32/14 A2994 RMK A01 T03240135  RH  032%=      5-min Rain = 0
KWE2 260102Z 15019G24KT 32/14 A2994 RMK A01 T03230136  RH  032%=      5-min Rain = 0
KWE2 260103Z 15019G24KT 32/14 A2994 RMK A01 T03230136  RH  032%=      5-min Rain = 0
KWE2 260104Z 15020KT 32/14 A2994 RMK A01 T03230136  RH  032%=      5-min Rain = 0
KWE2 260105Z 15018G23KT 32/14 A2994 RMK A01 T03220136  RH  032%=      5-min Rain = 0
KWE2 260106Z 15015KT 32/14 A2994 RMK A01 T03220136  RH  032%=      5-min Rain = 0
KWE2 260107Z 14016KT 32/14 A2994 RMK A01 T03220137  RH  033%=      5-min Rain = 0
KWE2 260108Z 15020KT 32/14 A2994 RMK A01 T03220136  RH  032%=      5-min Rain = 0
KWE2 260109Z 15018KT 32/14 A2994 RMK A01 T03210135  RH  032%=      5-min Rain = 0
KWE2 260110Z 15017KT 32/14 A2994 RMK A01 T03210136  RH  033%=      5-min Rain = 0
KWE2 260111Z 15020KT 32/14 A2994 RMK A01 T03200137  RH  033%=      5-min Rain = 0
KWE2 260112Z 15018KT 32/14 A2994 RMK A01 T03200139  RH  033%=      5-min Rain = 0
KWE2 260113Z 14016KT 32/14 A2994 RMK A01 T03190143  RH  034%=      5-min Rain = 0
KWE2 260114Z 15016KT 32/15 A2994 RMK A01 T03180147  RH  036%=      5-min Rain = 0
KWE2 260115Z 14018KT 32/15 A2994 RMK A01 T03160150  RH  037%=      5-min Rain = 0
KWE2 260116Z 14019KT 32/15 A2994 RMK A01 T03150153  RH  037%=      5-min Rain = 0
KWE2 260117Z 14020KT 31/15 A2994 RMK A01 T03140153  RH  038%=      5-min Rain = 0
KWE2 260118Z 14017KT 31/15 A2994 RMK A01 T03140154  RH  038%=      5-min Rain = 0
KWE2 260119Z 13016KT 31/16 A2994 RMK A01 T03130155  RH  039%=      5-min Rain = 0
KWE2 260120Z 14016KT 31/16 A2994 RMK A01 T03120155  RH  039%=      5-min Rain = 0
KWE2 260121Z 14017KT 31/16 A2994 RMK A01 T03110155  RH  039%=      5-min Rain = 0
KWE2 260122Z 13016KT 31/16 A2994 RMK A01 T03110156  RH  039%=      5-min Rain = 0
KWE2 260123Z 14017KT 31/16 A2994 RMK A01 T03100157  RH  040%=      5-min Rain = 0
KWE2 260124Z 13015KT 31/16 A2994 RMK A01 T03090158  RH  040%=      5-min Rain = 0
KWE2 260125Z 13019KT 31/16 A2994 RMK A01 T03090160  RH  041%=      5-min Rain = 0
KWE2 260126Z 13019KT 31/16 A2995 RMK A01 T03080161  RH  041%=      5-min Rain = 0
KWE2 260127Z 14021KT 31/16 A2995 RMK A01 T03070161  RH  041%=      5-min Rain = 0
KWE2 260128Z 13020G25KT 31/16 A2995 RMK A01 T03070162  RH  042%=      5-min Rain = 0
KWE2 260129Z 14019KT 31/16 A2995 RMK A01 T03060162  RH  042%=      5-min Rain = 0
KWE2 260130Z 14017KT 31/16 A2995 RMK A01 T03050163  RH  042%=      5-min Rain = 0
KWE2 260131Z 14018KT 30/16 A2995 RMK A01 T03040163  RH  043%=      5-min Rain = 0
KWE2 260132Z 14019KT 30/16 A2995 RMK A01 T03040164  RH  043%=      5-min Rain = 0
KWE2 260133Z 14019KT 30/16 A2995 RMK A01 T03030164  RH  043%=      5-min Rain = 0
KWE2 260134Z 13016KT 30/17 A2995 RMK A01 T03030165  RH  044%=      5-min Rain = 0
KWE2 260135Z 14019KT 30/17 A2995 RMK A01 T03020166  RH  044%=      5-min Rain = 0
KWE2 260136Z 13018KT 30/17 A2995 RMK A01 T03010166  RH  044%=      5-min Rain = 0
KWE2 260137Z 13018KT 30/17 A2995 RMK A01 T03000167  RH  045%=      5-min Rain = 0
KWE2 260138Z 13018G24KT 30/17 A2996 RMK A01 T03000168  RH  045%=      5-min Rain = 0
KWE2 260139Z 14018KT 30/17 A2996 RMK A01 T02990168  RH  045%=      5-min Rain = 0
KWE2 260140Z 14019KT 30/17 A2996 RMK A01 T02980168  RH  045%=      5-min Rain = 0
KWE2 260141Z 13018KT 30/17 A2996 RMK A01 T02980168  RH  046%=      5-min Rain = 0
KWE2 260142Z 13019KT 30/17 A2996 RMK A01 T02970168  RH  046%=      5-min Rain = 0
KWE2 260143Z 13017KT 30/17 A2996 RMK A01 T02970169  RH  046%=      5-min Rain = 0
KWE2 260144Z 13019KT 30/17 A2996 RMK A01 T02960169  RH  046%=      5-min Rain = 0
KWE2 260145Z 13020KT 30/17 A2996 RMK A01 T02970170  RH  046%=      5-min Rain = 0
KWE2 260146Z 13018KT 30/17 A2996 RMK A01 T02960170  RH  047%=      5-min Rain = 0
KWE2 260147Z 13018KT 30/17 A2996 RMK A01 T02960170  RH  047%=      5-min Rain = 0
KWE2 260148Z 13018KT 30/17 A2996 RMK A01 T02950171  RH  047%=      5-min Rain = 0
KWE2 260149Z 13019KT 30/17 A2996 RMK A01 T02950171  RH  047%=      5-min Rain = 0
KWE2 260150Z 13018KT 29/17 A2996 RMK A01 T02940171  RH  048%=      5-min Rain = 0
KWE2 260151Z 13019KT 29/17 A2996 RMK A01 T02940172  RH  048%=      5-min Rain = 0
KWE2 260152Z 13020G25KT 29/17 A2996 RMK A01 T02930172  RH  048%=      5-min Rain = 0
KWE2 260153Z 13020G25KT 29/17 A2996 RMK A01 T02930172  RH  048%=      5-min Rain = 0
KWE2 260154Z 13020KT 29/17 A2996 RMK A01 T02930172  RH  048%=      5-min Rain = 0
KWE2 260155Z 13017KT 29/17 A2996 RMK A01 T02920172  RH  048%=      5-min Rain = 0
KWE2 260156Z 13018KT 29/17 A2996 RMK A01 T02920173  RH  049%=      5-min Rain = 0
KWE2 260157Z 13019KT 29/17 A2996 RMK A01 T02910173  RH  049%=      5-min Rain = 0
KWE2 260158Z 13019KT 29/17 A2996 RMK A01 T02910173  RH  049%=      5-min Rain = 0
KWE2 260159Z 13018KT 29/17 A2996 RMK A01 T02900173  RH  049%=      5-min Rain = 0
KWE2 260200Z 13018KT 29/17 A2996 RMK A01 T02900173  RH  049%=      5-min Rain = 0
KWE2 260201Z 13018KT 29/17 A2996 RMK A01 T02900174  RH  050%=      5-min Rain = 0
KWE2 260202Z 13020KT 29/17 A2996 RMK A01 T02890174  RH  050%=      5-min Rain = 0
KWE2 260203Z 13020KT 29/17 A2997 RMK A01 T02890174  RH  050%=      5-min Rain = 0
KWE2 260204Z 13019KT 29/17 A2997 RMK A01 T02890174  RH  050%=      5-min Rain = 0
KWE2 260205Z 13018KT 29/18 A2997 RMK A01 T02880175  RH  050%=      5-min Rain = 0
KWE2 260206Z 13018KT 29/18 A2997 RMK A01 T02880175  RH  050%=      5-min Rain = 0
KWE2 260207Z 13019KT 29/18 A2997 RMK A01 T02870175  RH  051%=      5-min Rain = 0
KWE2 260208Z 13017KT 29/18 A2997 RMK A01 T02870175  RH  051%=      5-min Rain = 0
KWE2 260209Z 13018G23KT 29/18 A2997 RMK A01 T02870175  RH  051%=      5-min Rain = 0
KWE2 260210Z 13023KT 29/18 A2997 RMK A01 T02860175  RH  051%=      5-min Rain = 0
KWE2 260211Z 13022KT 29/18 A2997 RMK A01 T02860175  RH  051%=      5-min Rain = 0
KWE2 260212Z 13021KT 29/18 A2997 RMK A01 T02860175  RH  051%=      5-min Rain = 0
KWE2 260213Z 13021KT 29/18 A2997 RMK A01 T02860176  RH  051%=      5-min Rain = 0
KWE2 260214Z 13021KT 29/18 A2997 RMK A01 T02860175  RH  051%=      5-min Rain = 0
KWE2 260215Z 13022KT 29/18 A2997 RMK A01 T02860175  RH  051%=      5-min Rain = 0
KWE2 260216Z 13020KT 29/18 A2997 RMK A01 T02860175  RH  051%=      5-min Rain = 0
KWE2 260217Z 13018KT 29/18 A2997 RMK A01 T02860175  RH  051%=      5-min Rain = 0
KWE2 260218Z 13019KT 29/18 A2997 RMK A01 T02850176  RH  051%=      5-min Rain = 0
KWE2 260219Z 13018KT 29/18 A2998 RMK A01 T02850176  RH  052%=      5-min Rain = 0
KWE2 260220Z 13017KT 28/18 A2998 RMK A01 T02840176  RH  052%=      5-min Rain = 0
KWE2 260221Z 13019G24KT 28/18 A2998 RMK A01 T02830176  RH  052%=      5-min Rain = 0
KWE2 260222Z 13019KT 28/18 A2998 RMK A01 T02830176  RH  052%=      5-min Rain = 0
KWE2 260223Z 13019KT 28/18 A2998 RMK A01 T02830176  RH  052%=      5-min Rain = 0
KWE2 260224Z 13018KT 28/18 A2999 RMK A01 T02830177  RH  053%=      5-min Rain = 0
KWE2 260225Z 13019KT 28/18 A2999 RMK A01 T02820176  RH  053%=      5-min Rain = 0
KWE2 260226Z 13019KT 28/18 A2999 RMK A01 T02820176  RH  053%=      5-min Rain = 0
KWE2 260227Z 13018G23KT 28/18 A2999 RMK A01 T02820177  RH  053%=      5-min Rain = 0
KWE2 260228Z 13016KT 28/18 A2999 RMK A01 T02810176  RH  053%=      5-min Rain = 0
KWE2 260229Z 13016KT 28/18 A2999 RMK A01 T02810176  RH  053%=      5-min Rain = 0
KWE2 260230Z 13019KT 28/18 A2999 RMK A01 T02800176  RH  053%=      5-min Rain = 0
KWE2 260231Z 13021KT 28/18 A2999 RMK A01 T02800175  RH  053%=      5-min Rain = 0
KWE2 260232Z 13018KT 28/18 A2999 RMK A01 T02800175  RH  053%=      5-min Rain = 0
KWE2 260233Z 13018KT 28/18 A2999 RMK A01 T02800175  RH  053%=      5-min Rain = 0
KWE2 260234Z 13018KT 28/18 A2999 RMK A01 T02800176  RH  053%=      5-min Rain = 0
KWE2 260235Z 13018KT 28/18 A2999 RMK A01 T02800176  RH  053%=      5-min Rain = 0
KWE2 260236Z 13019KT 28/18 A2999 RMK A01 T02790175  RH  053%=      5-min Rain = 0
KWE2 260237Z 13017KT 28/18 A30 RMK A01 T02790175  RH  053%=      5-min Rain = 0
KWE2 260238Z 13019KT 28/18 A30 RMK A01 T02790175  RH  053%=      5-min Rain = 0
KWE2 260239Z 14019KT 28/18 A30 RMK A01 T02790175  RH  053%=      5-min Rain = 0
KWE2 260240Z 13018KT 28/17 A30 RMK A01 T02780174  RH  053%=      5-min Rain = 0
KWE2 260241Z 13019KT 28/17 A30 RMK A01 T02780174  RH  053%=      5-min Rain = 0
KWE2 260242Z 13016KT 28/17 A30 RMK A01 T02780174  RH  053%=      5-min Rain = 0
KWE2 260243Z 13015KT 28/18 A30 RMK A01 T02770175  RH  054%=      5-min Rain = 0
KWE2 260244Z 13016KT 28/17 A30 RMK A01 T02760174  RH  054%=      5-min Rain = 0
KWE2 260245Z 13019KT 28/17 A3001 RMK A01 T02760173  RH  053%=      5-min Rain = 0
KWE2 260246Z 13018KT 28/17 A3001 RMK A01 T02760173  RH  053%=      5-min Rain = 0
KWE2 260247Z 13017KT 28/17 A3001 RMK A01 T02770173  RH  053%=      5-min Rain = 0
KWE2 260248Z 13016KT 28/17 A3001 RMK A01 T02760173  RH  053%=      5-min Rain = 0
KWE2 260249Z 13014KT 28/17 A3001 RMK A01 T02760173  RH  053%=      5-min Rain = 0
KWE2 260250Z 13018G23KT 28/17 A3001 RMK A01 T02750172  RH  053%=      5-min Rain = 0
KWE2 260251Z 13018KT 28/17 A3001 RMK A01 T02750171  RH  053%=      5-min Rain = 0
KWE2 260252Z 13017KT 28/17 A3001 RMK A01 T02750171  RH  053%=      5-min Rain = 0
KWE2 260253Z 13016KT 28/17 A3002 RMK A01 T02750171  RH  053%=      5-min Rain = 0
KWE2 260254Z 13016G21KT 28/17 A3002 RMK A01 T02750171  RH  053%=      5-min Rain = 0
KWE2 260255Z 14015KT 27/17 A3002 RMK A01 T02740171  RH  053%=      5-min Rain = 0
KWE2 260256Z 13017KT 27/17 A3002 RMK A01 T02740171  RH  053%=      5-min Rain = 0
KWE2 260257Z 13016KT 27/17 A3002 RMK A01 T02740171  RH  053%=      5-min Rain = 0
KWE2 260258Z 13016KT 27/17 A3002 RMK A01 T02730170  RH  053%=      5-min Rain = 0
KWE2 260259Z 13015KT 27/17 A3002 RMK A01 T02730170  RH  053%=      5-min Rain = 0
KWE2 260300Z 13017KT 27/17 A3002 RMK A01 T02720170  RH  053%=      5-min Rain = 0
KWE2 260301Z 14017KT 27/17 A3002 RMK A01 T02720169  RH  053%=      5-min Rain = 0
KWE2 260302Z 14015KT 27/17 A3002 RMK A01 T02730169  RH  053%=      5-min Rain = 0
KWE2 260303Z 14017G22KT 27/17 A3003 RMK A01 T02720169  RH  053%=      5-min Rain = 0
KWE2 260304Z 13017KT 27/17 A3003 RMK A01 T02720169  RH  053%=      5-min Rain = 0
KWE2 260305Z 14017KT 27/17 A3003 RMK A01 T02720169  RH  053%=      5-min Rain = 0
KWE2 260306Z 14016KT 27/17 A3003 RMK A01 T02720169  RH  053%=      5-min Rain = 0
KWE2 260307Z 14015KT 27/17 A3003 RMK A01 T02720169  RH  053%=      5-min Rain = 0
KWE2 260308Z 14016G21KT 27/17 A3003 RMK A01 T02720169  RH  053%=      5-min Rain = 0
KWE2 260309Z 14016KT 27/17 A3003 RMK A01 T02720169  RH  053%=      5-min Rain = 0
KWE2 260310Z 14015KT 27/17 A3004 RMK A01 T02720169  RH  053%=      5-min Rain = 0
KWE2 260311Z 14015KT 27/17 A3004 RMK A01 T02710169  RH  053%=      5-min Rain = 0
KWE2 260312Z 14015KT 27/17 A3004 RMK A01 T02710169  RH  054%=      5-min Rain = 0
KWE2 260313Z 14016KT 27/17 A3004 RMK A01 T02700169  RH  054%=      5-min Rain = 0
KWE2 260314Z 14015KT 27/17 A3004 RMK A01 T02700169  RH  054%=      5-min Rain = 0
KWE2 260315Z 13014KT 27/17 A3004 RMK A01 T02700169  RH  054%=      5-min Rain = 0
KWE2 260316Z 14015KT 27/17 A3004 RMK A01 T02690169  RH  054%=      5-min Rain = 0
KWE2 260317Z 13015KT 27/17 A3004 RMK A01 T02690169  RH  054%=      5-min Rain = 0
KWE2 260318Z 13015KT 27/17 A3004 RMK A01 T02690169  RH  054%=      5-min Rain = 0
KWE2 260319Z 13016KT 27/17 A3004 RMK A01 T02700169  RH  054%=      5-min Rain = 0
KWE2 260320Z 13015KT 27/17 A3005 RMK A01 T02690169  RH  054%=      5-min Rain = 0
KWE2 260321Z 13016KT 27/17 A3005 RMK A01 T02690170  RH  054%=      5-min Rain = 0
KWE2 260322Z 13017KT 27/17 A3005 RMK A01 T02690169  RH  054%=      5-min Rain = 0
KWE2 260323Z 13017KT 27/17 A3005 RMK A01 T02690169  RH  054%=      5-min Rain = 0
KWE2 260324Z 14014KT 27/17 A3005 RMK A01 T02690169  RH  054%=      5-min Rain = 0
KWE2 260325Z 14015KT 27/17 A3006 RMK A01 T02690170  RH  055%=      5-min Rain = 0
KWE2 260326Z 14016KT 27/17 A3006 RMK A01 T02690170  RH  055%=      5-min Rain = 0
KWE2 260327Z 14017KT 27/17 A3006 RMK A01 T02690170  RH  055%=      5-min Rain = 0
KWE2 260328Z 14016KT 27/17 A3006 RMK A01 T02690170  RH  055%=      5-min Rain = 0
KWE2 260329Z 14015KT 27/17 A3006 RMK A01 T02690170  RH  055%=      5-min Rain = 0
KWE2 260330Z 14016KT 27/17 A3006 RMK A01 T02690170  RH  055%=      5-min Rain = 0
KWE2 260331Z 15014KT 27/17 A3006 RMK A01 T02690170  RH  055%=      5-min Rain = 0
KWE2 260332Z 14014KT 27/17 A3006 RMK A01 T02690170  RH  055%=      5-min Rain = 0
KWE2 260333Z 14014KT 27/17 A3007 RMK A01 T02680170  RH  055%=      5-min Rain = 0
KWE2 260334Z 14015KT 27/17 A3007 RMK A01 T02680170  RH  055%=      5-min Rain = 0
KWE2 260335Z 14013KT 27/17 A3007 RMK A01 T02670170  RH  055%=      5-min Rain = 0
KWE2 260336Z 14015KT 27/17 A3007 RMK A01 T02670170  RH  055%=      5-min Rain = 0
KWE2 260337Z 14014KT 27/17 A3007 RMK A01 T02670170  RH  055%=      5-min Rain = 0
KWE2 260338Z 15015KT 27/17 A3007 RMK A01 T02670170  RH  055%=      5-min Rain = 0
KWE2 260339Z 15014KT 27/17 A3007 RMK A01 T02670170  RH  055%=      5-min Rain = 0
KWE2 260340Z 15013KT 27/17 A3007 RMK A01 T02670170  RH  055%=      5-min Rain = 0
KWE2 260341Z 15013KT 27/17 A3007 RMK A01 T02670170  RH  056%=      5-min Rain = 0
KWE2 260342Z 15014KT 27/17 A3007 RMK A01 T02660170  RH  056%=      5-min Rain = 0
KWE2 260343Z 14014KT 27/17 A3007 RMK A01 T02660171  RH  056%=      5-min Rain = 0
KWE2 260344Z 15015KT 27/17 A3007 RMK A01 T02660171  RH  056%=      5-min Rain = 0
KWE2 260345Z 14014KT 27/17 A3007 RMK A01 T02660171  RH  056%=      5-min Rain = 0
KWE2 260346Z 14014KT 27/17 A3007 RMK A01 T02650170  RH  056%=      5-min Rain = 0
KWE2 260347Z 14014KT 27/17 A3007 RMK A01 T02650171  RH  056%=      5-min Rain = 0
KWE2 260348Z 15015KT 27/17 A3007 RMK A01 T02650171  RH  056%=      5-min Rain = 0
KWE2 260349Z 14014KT 27/17 A3007 RMK A01 T02650171  RH  056%=      5-min Rain = 0
KWE2 260350Z 14014KT 27/17 A3006 RMK A01 T02650171  RH  056%=      5-min Rain = 0
KWE2 260351Z 14014KT 26/17 A3006 RMK A01 T02640171  RH  057%=      5-min Rain = 0
KWE2 260352Z 14014KT 26/17 A3006 RMK A01 T02630171  RH  057%=      5-min Rain = 0
KWE2 260353Z 14014KT 26/17 A3006 RMK A01 T02630171  RH  057%=      5-min Rain = 0
KWE2 260354Z 14015KT 26/17 A3006 RMK A01 T02630171  RH  057%=      5-min Rain = 0
KWE2 260355Z 14015KT 26/17 A3006 RMK A01 T02630171  RH  057%=      5-min Rain = 0
KWE2 260356Z 14014KT 26/17 A3006 RMK A01 T02630171  RH  057%=      5-min Rain = 0
KWE2 260357Z 14012KT 26/17 A3006 RMK A01 T02630171  RH  057%=      5-min Rain = 0
KWE2 260358Z 15012KT 26/17 A3006 RMK A01 T02620171  RH  057%=      5-min Rain = 0
KWE2 260359Z 15014KT 26/17 A3006 RMK A01 T02620171  RH  057%=      5-min Rain = 0
KWE2 260400Z 15014KT 26/17 A3006 RMK A01 T02620171  RH  057%=      5-min Rain = 0
KWE2 260401Z 15013KT 26/17 A3006 RMK A01 T02610171  RH  057%=      5-min Rain = 0
KWE2 260402Z 15013KT 26/17 A3006 RMK A01 T02610171  RH  057%=      5-min Rain = 0
KWE2 260403Z 15013KT 26/17 A3006 RMK A01 T02610171  RH  057%=      5-min Rain = 0
KWE2 260404Z 15014KT 26/17 A3006 RMK A01 T02610171  RH  057%=      5-min Rain = 0
KWE2 260405Z 15013KT 26/17 A3006 RMK A01 T02620171  RH  058%=      5-min Rain = 0
KWE2 260406Z 15013KT 26/17 A3007 RMK A01 T02610171  RH  058%=      5-min Rain = 0
KWE2 260407Z 15014KT 26/17 A3007 RMK A01 T02610171  RH  058%=      5-min Rain = 0
KWE2 260408Z 14013KT 26/17 A3007 RMK A01 T02610171  RH  058%=      5-min Rain = 0
KWE2 260409Z 15014KT 26/17 A3007 RMK A01 T02610171  RH  058%=      5-min Rain = 0
KWE2 260410Z 15013KT 26/17 A3007 RMK A01 T02610171  RH  058%=      5-min Rain = 0
KWE2 260411Z 15013KT 26/17 A3007 RMK A01 T02610171  RH  058%=      5-min Rain = 0
KWE2 260412Z 14013KT 26/17 A3007 RMK A01 T02600171  RH  058%=      5-min Rain = 0
KWE2 260413Z 15012KT 26/17 A3007 RMK A01 T02600171  RH  058%=      5-min Rain = 0
KWE2 260414Z 15013KT 26/17 A3007 RMK A01 T02590171  RH  058%=      5-min Rain = 0
KWE2 260415Z 15012KT 26/17 A3007 RMK A01 T02600171  RH  058%=      5-min Rain = 0
KWE2 260416Z 15012KT 26/17 A3007 RMK A01 T02590171  RH  058%=      5-min Rain = 0
KWE2 260417Z 15012KT 26/17 A3007 RMK A01 T02590171  RH  058%=      5-min Rain = 0
KWE2 260418Z 15013KT 26/17 A3007 RMK A01 T02590171  RH  058%=      5-min Rain = 0
KWE2 260419Z 16012KT 26/17 A3007 RMK A01 T02590171  RH  058%=      5-min Rain = 0
KWE2 260420Z 16013KT 26/17 A3007 RMK A01 T02590172  RH  059%=      5-min Rain = 0
KWE2 260421Z 16011KT 26/17 A3007 RMK A01 T02580171  RH  059%=      5-min Rain = 0
KWE2 260422Z 16012KT 26/17 A3007 RMK A01 T02580171  RH  059%=      5-min Rain = 0
KWE2 260423Z 15011KT 26/17 A3007 RMK A01 T02570171  RH  059%=      5-min Rain = 0
KWE2 260424Z 15012KT 26/17 A3007 RMK A01 T02570171  RH  059%=      5-min Rain = 0
KWE2 260425Z 15012KT 26/17 A3007 RMK A01 T02570171  RH  059%=      5-min Rain = 0
KWE2 260426Z 15012KT 26/17 A3007 RMK A01 T02570171  RH  059%=      5-min Rain = 0
KWE2 260427Z 15012KT 26/17 A3007 RMK A01 T02570171  RH  059%=      5-min Rain = 0
KWE2 260428Z 15012KT 26/17 A3007 RMK A01 T02560171  RH  059%=      5-min Rain = 0
KWE2 260429Z 15011KT 26/17 A3007 RMK A01 T02560171  RH  059%=      5-min Rain = 0
KWE2 260430Z 14011KT 26/17 A3007 RMK A01 T02550171  RH  060%=      5-min Rain = 0
KWE2 260431Z 14011KT 26/17 A3007 RMK A01 T02550171  RH  060%=      5-min Rain = 0
KWE2 260432Z 15010KT 25/17 A3007 RMK A01 T02540171  RH  060%=      5-min Rain = 0
KWE2 260433Z 14012KT 25/17 A3007 RMK A01 T02540172  RH  060%=      5-min Rain = 0
KWE2 260434Z 14011KT 25/17 A3007 RMK A01 T02530172  RH  061%=      5-min Rain = 0
KWE2 260435Z 14012KT 25/17 A3007 RMK A01 T02530172  RH  061%=      5-min Rain = 0
KWE2 260436Z 14011KT 25/17 A3007 RMK A01 T02520172  RH  061%=      5-min Rain = 0
KWE2 260437Z 14011KT 25/17 A3007 RMK A01 T02520172  RH  061%=      5-min Rain = 0
KWE2 260438Z 14011KT 25/17 A3007 RMK A01 T02510172  RH  061%=      5-min Rain = 0
KWE2 260439Z 14010KT 25/17 A3007 RMK A01 T02510172  RH  062%=      5-min Rain = 0
KWE2 260440Z 14011KT 25/17 A3007 RMK A01 T02510172  RH  062%=      5-min Rain = 0
KWE2 260441Z 14011KT 25/17 A3007 RMK A01 T02500172  RH  062%=      5-min Rain = 0
KWE2 260442Z 14010KT 25/17 A3007 RMK A01 T02510172  RH  062%=      5-min Rain = 0
KWE2 260443Z 14010KT 25/17 A3007 RMK A01 T02500172  RH  062%=      5-min Rain = 0
KWE2 260444Z 14010KT 25/17 A3007 RMK A01 T02490172  RH  062%=      5-min Rain = 0
KWE2 260445Z 14011KT 25/17 A3007 RMK A01 T02490172  RH  062%=      5-min Rain = 0
KWE2 260446Z 14011KT 25/17 A3007 RMK A01 T02490172  RH  062%=      5-min Rain = 0
KWE2 260447Z 13010KT 25/17 A3007 RMK A01 T02490172  RH  062%=      5-min Rain = 0
KWE2 260448Z 14011KT 25/17 A3007 RMK A01 T02480172  RH  063%=      5-min Rain = 0
KWE2 260449Z 13010KT 25/17 A3007 RMK A01 T02480172  RH  063%=      5-min Rain = 0
KWE2 260450Z 14011KT 25/17 A3007 RMK A01 T02480172  RH  063%=      5-min Rain = 0
KWE2 260451Z 13010KT 25/17 A3007 RMK A01 T02480172  RH  063%=      5-min Rain = 0
KWE2 260452Z 13010KT 25/17 A3007 RMK A01 T02480172  RH  063%=      5-min Rain = 0
KWE2 260453Z 13010KT 25/17 A3007 RMK A01 T02470172  RH  063%=      5-min Rain = 0
KWE2 260454Z 13011KT 25/17 A3007 RMK A01 T02470171  RH  063%=      5-min Rain = 0
KWE2 260455Z 13011KT 25/17 A3007 RMK A01 T02470171  RH  062%=      5-min Rain = 0
KWE2 260456Z 13013KT 25/17 A3007 RMK A01 T02470171  RH  062%=      5-min Rain = 0
KWE2 260457Z 13012KT 25/17 A3007 RMK A01 T02480171  RH  062%=      5-min Rain = 0
KWE2 260458Z 13012KT 25/17 A3007 RMK A01 T02480171  RH  062%=      5-min Rain = 0
KWE2 260459Z 13012KT 25/17 A3007 RMK A01 T02480171  RH  062%=      5-min Rain = 0

Page generated in 0.0817 seconds.